Observation data for Palo Duro Reservoir 1NW on 06/25/2019      Previous  Date  Next       Current Mesonet Observations  Soil Data  Daily Summary Page  Observations in Plain Language
KPD4 250500Z 16012KT 21/12 A2993 RMK A01 T02050123  RH  059%=      5-min Rain = 0
KPD4 250501Z 16011KT 21/12 A2993 RMK A01 T02050123  RH  059%=      5-min Rain = 0
KPD4 250502Z 16011KT 21/12 A2993 RMK A01 T02050123  RH  059%=      5-min Rain = 0
KPD4 250503Z 16011KT 20/12 A2993 RMK A01 T02040123  RH  059%=      5-min Rain = 0
KPD4 250504Z 17011KT 20/12 A2993 RMK A01 T02040123  RH  059%=      5-min Rain = 0
KPD4 250505Z 16011KT 21/12 A2993 RMK A01 T02050123  RH  059%=      5-min Rain = 0
KPD4 250506Z 16015KT 21/12 A2993 RMK A01 T02050122  RH  059%=      5-min Rain = 0
KPD4 250507Z 16011KT 21/12 A2993 RMK A01 T02070122  RH  058%=      5-min Rain = 0
KPD4 250508Z 17012KT 21/12 A2993 RMK A01 T02070122  RH  058%=      5-min Rain = 0
KPD4 250509Z 17011KT 21/12 A2993 RMK A01 T02060122  RH  059%=      5-min Rain = 0
KPD4 250510Z 17011KT 21/12 A2993 RMK A01 T02050122  RH  059%=      5-min Rain = 0
KPD4 250511Z 16014G19KT 21/12 A2993 RMK A01 T02050120  RH  058%=      5-min Rain = 0
KPD4 250512Z 16012KT 21/12 A2993 RMK A01 T02060121  RH  058%=      5-min Rain = 0
KPD4 250513Z 17011KT 21/12 A2993 RMK A01 T02060122  RH  059%=      5-min Rain = 0
KPD4 250514Z 17011KT 21/12 A2993 RMK A01 T02050121  RH  059%=      5-min Rain = 0
KPD4 250515Z 17012KT 21/12 A2993 RMK A01 T02050121  RH  059%=      5-min Rain = 0
KPD4 250516Z 17011KT 21/12 A2993 RMK A01 T02050121  RH  059%=      5-min Rain = 0
KPD4 250517Z 17011KT 20/12 A2993 RMK A01 T02040121  RH  059%=      5-min Rain = 0
KPD4 250518Z 17010KT 20/12 A2993 RMK A01 T02040121  RH  059%=      5-min Rain = 0
KPD4 250519Z 17011KT 20/12 A2993 RMK A01 T02030121  RH  060%=      5-min Rain = 0
KPD4 250520Z 17013KT 20/12 A2993 RMK A01 T02030121  RH  059%=      5-min Rain = 0
KPD4 250521Z 17011KT 20/12 A2993 RMK A01 T02030121  RH  059%=      5-min Rain = 0
KPD4 250522Z 17012KT 20/12 A2993 RMK A01 T02030122  RH  059%=      5-min Rain = 0
KPD4 250523Z 17012KT 20/12 A2993 RMK A01 T02030122  RH  060%=      5-min Rain = 0
KPD4 250524Z 17012KT 20/12 A2993 RMK A01 T02030122  RH  060%=      5-min Rain = 0
KPD4 250525Z 17010KT 20/12 A2993 RMK A01 T02020122  RH  060%=      5-min Rain = 0
KPD4 250526Z 16011KT 20/12 A2993 RMK A01 T02020123  RH  060%=      5-min Rain = 0
KPD4 250527Z 16012KT 20/12 A2993 RMK A01 T02020122  RH  060%=      5-min Rain = 0
KPD4 250528Z 16011KT 20/12 A2993 RMK A01 T02030123  RH  060%=      5-min Rain = 0
KPD4 250529Z 17010KT 20/12 A2993 RMK A01 T02030124  RH  060%=      5-min Rain = 0
KPD4 250530Z 17010KT 20/12 A2993 RMK A01 T02020124  RH  061%=      5-min Rain = 0
KPD4 250531Z 17010KT 20/12 A2993 RMK A01 T02010124  RH  061%=      5-min Rain = 0
KPD4 250532Z 17011KT 20/12 A2993 RMK A01 T02000124  RH  061%=      5-min Rain = 0
KPD4 250533Z 17011KT 20/12 A2993 RMK A01 T02000123  RH  061%=      5-min Rain = 0
KPD4 250534Z 17011KT 20/12 A2994 RMK A01 T02010123  RH  061%=      5-min Rain = 0
KPD4 250535Z 18011KT 20/12 A2994 RMK A01 T02010122  RH  061%=      5-min Rain = 0
KPD4 250536Z 17011KT 20/12 A2994 RMK A01 T02010122  RH  061%=      5-min Rain = 0
KPD4 250537Z 17011KT 20/12 A2994 RMK A01 T02000123  RH  061%=      5-min Rain = 0
KPD4 250538Z 17012KT 20/12 A2994 RMK A01 T01990122  RH  061%=      5-min Rain = 0
KPD4 250539Z 17013KT 20/12 A2994 RMK A01 T01990122  RH  061%=      5-min Rain = 0
KPD4 250540Z 17011KT 20/12 A2994 RMK A01 T02000121  RH  060%=      5-min Rain = 0
KPD4 250541Z 17012KT 20/12 A2994 RMK A01 T02000121  RH  060%=      5-min Rain = 0
KPD4 250542Z 17011KT 20/12 A2994 RMK A01 T02000122  RH  060%=      5-min Rain = 0
KPD4 250543Z 17012KT 20/12 A2994 RMK A01 T02000121  RH  060%=      5-min Rain = 0
KPD4 250544Z 17011KT 20/12 A2994 RMK A01 T02000122  RH  061%=      5-min Rain = 0
KPD4 250545Z 17011KT 20/12 A2994 RMK A01 T02000122  RH  061%=      5-min Rain = 0
KPD4 250546Z 17011KT 20/12 A2994 RMK A01 T02000122  RH  061%=      5-min Rain = 0
KPD4 250547Z 17011KT 20/12 A2994 RMK A01 T02000122  RH  061%=      5-min Rain = 0
KPD4 250548Z 17014KT 20/12 A2994 RMK A01 T02000122  RH  060%=      5-min Rain = 0
KPD4 250549Z 17012KT 20/12 A2994 RMK A01 T02020122  RH  060%=      5-min Rain = 0
KPD4 250550Z 17012KT 20/12 A2994 RMK A01 T02020122  RH  060%=      5-min Rain = 0
KPD4 250551Z 17012KT 20/12 A2994 RMK A01 T02030123  RH  060%=      5-min Rain = 0
KPD4 250552Z 17012KT 20/12 A2994 RMK A01 T02020123  RH  060%=      5-min Rain = 0
KPD4 250553Z 17014KT 20/12 A2993 RMK A01 T02020123  RH  061%=      5-min Rain = 0
KPD4 250554Z 17013KT 20/12 A2993 RMK A01 T02020123  RH  060%=      5-min Rain = 0
KPD4 250555Z 17012KT 20/12 A2994 RMK A01 T02030124  RH  060%=      5-min Rain = 0
KPD4 250556Z 17011KT 20/12 A2994 RMK A01 T02020124  RH  061%=      5-min Rain = 0
KPD4 250557Z 17011KT 20/13 A2994 RMK A01 T02020125  RH  061%=      5-min Rain = 0
KPD4 250558Z 17011KT 20/13 A2994 RMK A01 T02000125  RH  062%=      5-min Rain = 0
KPD4 250559Z 17011KT 20/13 A2994 RMK A01 T02000125  RH  062%=      5-min Rain = 0
KPD4 250600Z 17012KT 20/13 A2994 RMK A01 T02000125  RH  062%=      5-min Rain = 0
KPD4 250601Z 17012KT 20/13 A2994 RMK A01 T02010125  RH  062%=      5-min Rain = 0
KPD4 250602Z 17011KT 20/13 A2994 RMK A01 T02010125  RH  062%=      5-min Rain = 0
KPD4 250603Z 17010KT 20/13 A2994 RMK A01 T02000126  RH  062%=      5-min Rain = 0
KPD4 250604Z 16010KT 20/13 A2994 RMK A01 T01990127  RH  063%=      5-min Rain = 0
KPD4 250605Z 17011KT 20/13 A2994 RMK A01 T01990126  RH  063%=      5-min Rain = 0
KPD4 250606Z 16010KT 20/13 A2994 RMK A01 T01990127  RH  063%=      5-min Rain = 0
KPD4 250607Z 17012KT 20/13 A2994 RMK A01 T01990127  RH  063%=      5-min Rain = 0
KPD4 250608Z 17011KT 20/13 A2994 RMK A01 T01990127  RH  063%=      5-min Rain = 0
KPD4 250609Z 17010KT 20/13 A2994 RMK A01 T01990127  RH  063%=      5-min Rain = 0
KPD4 250610Z 17010KT 20/13 A2994 RMK A01 T01990128  RH  063%=      5-min Rain = 0
KPD4 250611Z 17009KT 20/13 A2994 RMK A01 T01980128  RH  064%=      5-min Rain = 0
KPD4 250612Z 17012KT 20/13 A2994 RMK A01 T01970128  RH  064%=      5-min Rain = 0
KPD4 250613Z 17012KT 20/13 A2994 RMK A01 T01970128  RH  064%=      5-min Rain = 0
KPD4 250614Z 17010KT 20/13 A2994 RMK A01 T01990128  RH  064%=      5-min Rain = 0
KPD4 250615Z 17013KT 20/13 A2994 RMK A01 T01990128  RH  064%=      5-min Rain = 0
KPD4 250616Z 17011KT 20/13 A2994 RMK A01 T01990129  RH  064%=      5-min Rain = 0
KPD4 250617Z 16011KT 20/13 A2994 RMK A01 T01990129  RH  064%=      5-min Rain = 0
KPD4 250618Z 17012KT 20/13 A2994 RMK A01 T01990129  RH  064%=      5-min Rain = 0
KPD4 250619Z 17010KT 20/13 A2994 RMK A01 T01990129  RH  064%=      5-min Rain = 0
KPD4 250620Z 17011KT 20/13 A2994 RMK A01 T01990130  RH  064%=      5-min Rain = 0
KPD4 250621Z 17012KT 20/13 A2994 RMK A01 T01980130  RH  065%=      5-min Rain = 0
KPD4 250622Z 17011KT 20/13 A2994 RMK A01 T01990131  RH  065%=      5-min Rain = 0
KPD4 250623Z 17011KT 20/13 A2994 RMK A01 T01980131  RH  065%=      5-min Rain = 0
KPD4 250624Z 17011KT 20/13 A2994 RMK A01 T01980131  RH  065%=      5-min Rain = 0
KPD4 250625Z 17011KT 20/13 A2994 RMK A01 T01980132  RH  065%=      5-min Rain = 0
KPD4 250626Z 17011KT 20/13 A2994 RMK A01 T01980132  RH  066%=      5-min Rain = 0
KPD4 250627Z 17012KT 20/13 A2994 RMK A01 T01970132  RH  066%=      5-min Rain = 0
KPD4 250628Z 17012KT 20/13 A2994 RMK A01 T01980133  RH  066%=      5-min Rain = 0
KPD4 250629Z 17012KT 20/13 A2994 RMK A01 T01980133  RH  066%=      5-min Rain = 0
KPD4 250630Z 17012KT 20/13 A2994 RMK A01 T01980133  RH  066%=      5-min Rain = 0
KPD4 250631Z 17012KT 20/13 A2994 RMK A01 T01980133  RH  066%=      5-min Rain = 0
KPD4 250632Z 17013KT 20/13 A2994 RMK A01 T01980134  RH  066%=      5-min Rain = 0
KPD4 250633Z 17012KT 20/13 A2994 RMK A01 T01980134  RH  067%=      5-min Rain = 0
KPD4 250634Z 17012KT 20/14 A2994 RMK A01 T01980135  RH  067%=      5-min Rain = 0
KPD4 250635Z 17012KT 20/14 A2994 RMK A01 T01980135  RH  067%=      5-min Rain = 0
KPD4 250636Z 17012KT 20/14 A2994 RMK A01 T01980136  RH  067%=      5-min Rain = 0
KPD4 250637Z 17012KT 20/14 A2994 RMK A01 T01980136  RH  068%=      5-min Rain = 0
KPD4 250638Z 17011KT 20/14 A2994 RMK A01 T01970136  RH  068%=      5-min Rain = 0
KPD4 250639Z 17012KT 20/14 A2994 RMK A01 T01970137  RH  068%=      5-min Rain = 0
KPD4 250640Z 17011KT 20/14 A2994 RMK A01 T01970136  RH  068%=      5-min Rain = 0
KPD4 250641Z 17014KT 20/14 A2994 RMK A01 T01970137  RH  068%=      5-min Rain = 0
KPD4 250642Z 17013KT 20/14 A2994 RMK A01 T01970137  RH  068%=      5-min Rain = 0
KPD4 250643Z 17013KT 20/14 A2994 RMK A01 T01980137  RH  068%=      5-min Rain = 0
KPD4 250644Z 17012KT 20/14 A2994 RMK A01 T01980138  RH  068%=      5-min Rain = 0
KPD4 250645Z 17011KT 20/14 A2994 RMK A01 T01980138  RH  068%=      5-min Rain = 0
KPD4 250646Z 17013KT 20/14 A2994 RMK A01 T01970138  RH  068%=      5-min Rain = 0
KPD4 250647Z 17012KT 20/14 A2994 RMK A01 T01980138  RH  068%=      5-min Rain = 0
KPD4 250648Z 17011KT 20/14 A2994 RMK A01 T01980138  RH  068%=      5-min Rain = 0
KPD4 250649Z 17012KT 20/14 A2994 RMK A01 T01980139  RH  069%=      5-min Rain = 0
KPD4 250650Z 17012KT 20/14 A2994 RMK A01 T01980140  RH  069%=      5-min Rain = 0
KPD4 250651Z 17013KT 20/14 A2994 RMK A01 T01970140  RH  069%=      5-min Rain = 0
KPD4 250652Z 17013KT 20/14 A2994 RMK A01 T01980140  RH  069%=      5-min Rain = 0
KPD4 250653Z 17011KT 20/14 A2994 RMK A01 T01980141  RH  069%=      5-min Rain = 0
KPD4 250654Z 17011KT 20/14 A2994 RMK A01 T01980141  RH  070%=      5-min Rain = 0
KPD4 250655Z 17010KT 20/14 A2994 RMK A01 T01970141  RH  070%=      5-min Rain = 0
KPD4 250656Z 17011KT 20/14 A2994 RMK A01 T01970142  RH  070%=      5-min Rain = 0
KPD4 250657Z 18011KT 20/14 A2994 RMK A01 T01970142  RH  071%=      5-min Rain = 0
KPD4 250658Z 17010KT 20/14 A2994 RMK A01 T01970142  RH  071%=      5-min Rain = 0
KPD4 250659Z 18010KT 20/14 A2994 RMK A01 T01970142  RH  071%=      5-min Rain = 0
KPD4 250700Z 18010KT 20/14 A2994 RMK A01 T01970143  RH  071%=      5-min Rain = 0
KPD4 250701Z 18010KT 20/14 A2994 RMK A01 T01970143  RH  071%=      5-min Rain = 0
KPD4 250702Z 18010KT 20/14 A2994 RMK A01 T01960143  RH  071%=      5-min Rain = 0
KPD4 250703Z 18009KT 20/14 A2994 RMK A01 T01970144  RH  071%=      5-min Rain = 0
KPD4 250704Z 19009KT 20/14 A2994 RMK A01 T01960144  RH  072%=      5-min Rain = 0
KPD4 250705Z 19010KT 20/14 A2994 RMK A01 T01960144  RH  072%=      5-min Rain = 0
KPD4 250706Z 19008KT 20/14 A2994 RMK A01 T01960144  RH  072%=      5-min Rain = 0
KPD4 250707Z 19008KT 20/14 A2994 RMK A01 T01950144  RH  072%=      5-min Rain = 0
KPD4 250708Z 19008KT 20/14 A2994 RMK A01 T01950144  RH  072%=      5-min Rain = 0
KPD4 250709Z 20008KT 20/15 A2994 RMK A01 T01950145  RH  073%=      5-min Rain = 0
KPD4 250710Z 20007KT 19/14 A2994 RMK A01 T01940144  RH  073%=      5-min Rain = 0
KPD4 250711Z 20007KT 19/14 A2994 RMK A01 T01940144  RH  073%=      5-min Rain = 0
KPD4 250712Z 20008KT 19/15 A2994 RMK A01 T01940145  RH  073%=      5-min Rain = 0
KPD4 250713Z 20007KT 19/15 A2994 RMK A01 T01940145  RH  073%=      5-min Rain = 0
KPD4 250714Z 20007KT 19/15 A2994 RMK A01 T01930145  RH  073%=      5-min Rain = 0
KPD4 250715Z 19007KT 19/15 A2994 RMK A01 T01930145  RH  074%=      5-min Rain = 0
KPD4 250716Z 20008KT 19/15 A2994 RMK A01 T01920145  RH  074%=      5-min Rain = 0
KPD4 250717Z 19008KT 19/15 A2994 RMK A01 T01930146  RH  074%=      5-min Rain = 0
KPD4 250718Z 20007KT 19/15 A2994 RMK A01 T01930146  RH  074%=      5-min Rain = 0
KPD4 250719Z 19008KT 19/15 A2994 RMK A01 T01920146  RH  075%=      5-min Rain = 0
KPD4 250720Z 20008KT 19/15 A2994 RMK A01 T01910146  RH  075%=      5-min Rain = 0
KPD4 250721Z 20007KT 19/15 A2994 RMK A01 T01920146  RH  075%=      5-min Rain = 0
KPD4 250722Z 20008KT 19/15 A2994 RMK A01 T01920146  RH  075%=      5-min Rain = 0
KPD4 250723Z 20008KT 19/15 A2994 RMK A01 T01920146  RH  075%=      5-min Rain = 0
KPD4 250724Z 20009KT 19/15 A2994 RMK A01 T01910146  RH  075%=      5-min Rain = 0
KPD4 250725Z 19009KT 19/15 A2994 RMK A01 T01920146  RH  075%=      5-min Rain = 0
KPD4 250726Z 20010KT 19/15 A2995 RMK A01 T01930147  RH  075%=      5-min Rain = 0
KPD4 250727Z 19009KT 19/15 A2995 RMK A01 T01930147  RH  074%=      5-min Rain = 0
KPD4 250728Z 19009KT 19/15 A2994 RMK A01 T01940147  RH  074%=      5-min Rain = 0
KPD4 250729Z 19010KT 19/15 A2995 RMK A01 T01940147  RH  074%=      5-min Rain = 0
KPD4 250730Z 19010KT 19/15 A2994 RMK A01 T01940147  RH  074%=      5-min Rain = 0
KPD4 250731Z 19010KT 20/15 A2994 RMK A01 T01950147  RH  074%=      5-min Rain = 0
KPD4 250732Z 18010KT 20/15 A2994 RMK A01 T01950147  RH  074%=      5-min Rain = 0
KPD4 250733Z 19010KT 20/15 A2994 RMK A01 T01950147  RH  074%=      5-min Rain = 0
KPD4 250734Z 18010KT 20/15 A2995 RMK A01 T01950147  RH  074%=      5-min Rain = 0
KPD4 250735Z 18009KT 20/15 A2995 RMK A01 T01950147  RH  074%=      5-min Rain = 0
KPD4 250736Z 18010KT 19/15 A2994 RMK A01 T01940147  RH  074%=      5-min Rain = 0
KPD4 250737Z 18010KT 19/15 A2995 RMK A01 T01940148  RH  074%=      5-min Rain = 0
KPD4 250738Z 18010KT 19/15 A2995 RMK A01 T01940148  RH  075%=      5-min Rain = 0
KPD4 250739Z 18010KT 19/15 A2995 RMK A01 T01930147  RH  075%=      5-min Rain = 0
KPD4 250740Z 18009KT 19/15 A2995 RMK A01 T01930148  RH  075%=      5-min Rain = 0
KPD4 250741Z 18010KT 19/15 A2995 RMK A01 T01920148  RH  076%=      5-min Rain = 0
KPD4 250742Z 18010KT 19/15 A2995 RMK A01 T01920148  RH  076%=      5-min Rain = 0
KPD4 250743Z 18010KT 19/15 A2995 RMK A01 T01920148  RH  076%=      5-min Rain = 0
KPD4 250744Z 18010KT 19/15 A2995 RMK A01 T01910148  RH  076%=      5-min Rain = 0
KPD4 250745Z 18010KT 19/15 A2995 RMK A01 T01920148  RH  076%=      5-min Rain = 0
KPD4 250746Z 18010KT 19/15 A2995 RMK A01 T01920149  RH  076%=      5-min Rain = 0
KPD4 250747Z 18010KT 19/15 A2995 RMK A01 T01910148  RH  076%=      5-min Rain = 0
KPD4 250748Z 18009KT 19/15 A2995 RMK A01 T01920149  RH  076%=      5-min Rain = 0
KPD4 250749Z 18009KT 19/15 A2995 RMK A01 T01920149  RH  076%=      5-min Rain = 0
KPD4 250750Z 19009KT 19/15 A2995 RMK A01 T01910149  RH  077%=      5-min Rain = 0
KPD4 250751Z 18008KT 19/15 A2995 RMK A01 T01910150  RH  077%=      5-min Rain = 0
KPD4 250752Z 19009KT 19/15 A2995 RMK A01 T01900150  RH  078%=      5-min Rain = 0
KPD4 250753Z 19009KT 19/15 A2995 RMK A01 T01890150  RH  078%=      5-min Rain = 0
KPD4 250754Z 18010KT 19/15 A2995 RMK A01 T01890151  RH  078%=      5-min Rain = 0
KPD4 250755Z 19009KT 19/15 A2995 RMK A01 T01890151  RH  079%=      5-min Rain = 0
KPD4 250756Z 18009KT 19/15 A2995 RMK A01 T01890151  RH  079%=      5-min Rain = 0
KPD4 250757Z 19009KT 19/15 A2995 RMK A01 T01880151  RH  079%=      5-min Rain = 0
KPD4 250758Z 19009KT 19/15 A2995 RMK A01 T01880151  RH  079%=      5-min Rain = 0
KPD4 250759Z 19009KT 19/15 A2995 RMK A01 T01880152  RH  079%=      5-min Rain = 0
KPD4 250800Z 19008KT 19/15 A2995 RMK A01 T01870152  RH  080%=      5-min Rain = 0
KPD4 250801Z 19008KT 19/15 A2995 RMK A01 T01870151  RH  080%=      5-min Rain = 0
KPD4 250802Z 19008KT 19/15 A2995 RMK A01 T01860151  RH  080%=      5-min Rain = 0
KPD4 250803Z 19008KT 19/15 A2995 RMK A01 T01860151  RH  080%=      5-min Rain = 0
KPD4 250804Z 19008KT 19/15 A2994 RMK A01 T01850151  RH  080%=      5-min Rain = 0
KPD4 250805Z 19008KT 19/15 A2994 RMK A01 T01850151  RH  080%=      5-min Rain = 0
KPD4 250806Z 19008KT 19/15 A2995 RMK A01 T01850150  RH  080%=      5-min Rain = 0
KPD4 250807Z 20008KT 18/15 A2995 RMK A01 T01840150  RH  080%=      5-min Rain = 0
KPD4 250808Z 20008KT 18/15 A2995 RMK A01 T01840150  RH  081%=      5-min Rain = 0
KPD4 250809Z 20008KT 18/15 A2995 RMK A01 T01840150  RH  081%=      5-min Rain = 0
KPD4 250810Z 20008KT 18/15 A2995 RMK A01 T01830150  RH  081%=      5-min Rain = 0
KPD4 250811Z 20008KT 18/15 A2995 RMK A01 T01820149  RH  081%=      5-min Rain = 0
KPD4 250812Z 20007KT 18/15 A2995 RMK A01 T01820149  RH  081%=      5-min Rain = 0
KPD4 250813Z 20007KT 18/15 A2995 RMK A01 T01820150  RH  082%=      5-min Rain = 0
KPD4 250814Z 20007KT 18/15 A2995 RMK A01 T01810150  RH  082%=      5-min Rain = 0
KPD4 250815Z 19009KT 18/15 A2995 RMK A01 T01820150  RH  082%=      5-min Rain = 0
KPD4 250816Z 19009KT 18/15 A2995 RMK A01 T01830151  RH  081%=      5-min Rain = 0
KPD4 250817Z 19010KT 19/15 A2995 RMK A01 T01850151  RH  080%=      5-min Rain = 0
KPD4 250818Z 19009KT 19/15 A2995 RMK A01 T01870152  RH  080%=      5-min Rain = 0
KPD4 250819Z 19010KT 19/15 A2995 RMK A01 T01870151  RH  080%=      5-min Rain = 0
KPD4 250820Z 20010KT 19/15 A2995 RMK A01 T01870152  RH  080%=      5-min Rain = 0
KPD4 250821Z 19010KT 19/15 A2994 RMK A01 T01870152  RH  080%=      5-min Rain = 0
KPD4 250822Z 19010KT 19/15 A2994 RMK A01 T01880153  RH  080%=      5-min Rain = 0
KPD4 250823Z 19012KT 19/15 A2994 RMK A01 T01890154  RH  080%=      5-min Rain = 0
KPD4 250824Z 19010KT 19/15 A2994 RMK A01 T01900154  RH  080%=      5-min Rain = 0
KPD4 250825Z 19011KT 19/16 A2994 RMK A01 T01900155  RH  080%=      5-min Rain = 0
KPD4 250826Z 18012KT 19/16 A2994 RMK A01 T01910155  RH  080%=      5-min Rain = 0
KPD4 250827Z 19011KT 19/16 A2994 RMK A01 T01920156  RH  080%=      5-min Rain = 0
KPD4 250828Z 18012KT 19/16 A2994 RMK A01 T01930157  RH  080%=      5-min Rain = 0
KPD4 250829Z 18012KT 19/16 A2994 RMK A01 T01930157  RH  080%=      5-min Rain = 0
KPD4 250830Z 18011KT 19/16 A2994 RMK A01 T01930158  RH  080%=      5-min Rain = 0
KPD4 250831Z 18010KT 19/16 A2994 RMK A01 T01930158  RH  080%=      5-min Rain = 0
KPD4 250832Z 18011KT 19/16 A2994 RMK A01 T01930159  RH  080%=      5-min Rain = 0
KPD4 250833Z 18010KT 19/16 A2994 RMK A01 T01920159  RH  081%=      5-min Rain = 0
KPD4 250834Z 18010KT 19/16 A2994 RMK A01 T01930159  RH  081%=      5-min Rain = 0
KPD4 250835Z 18010KT 19/16 A2994 RMK A01 T01920159  RH  081%=      5-min Rain = 0
KPD4 250836Z 18010KT 19/16 A2994 RMK A01 T01920160  RH  082%=      5-min Rain = 0
KPD4 250837Z 18010KT 19/16 A2994 RMK A01 T01920160  RH  082%=      5-min Rain = 0
KPD4 250838Z 18009KT 19/16 A2994 RMK A01 T01920160  RH  082%=      5-min Rain = 0
KPD4 250839Z 18010KT 19/16 A2994 RMK A01 T01920160  RH  082%=      5-min Rain = 0
KPD4 250840Z 18010KT 19/16 A2994 RMK A01 T01920161  RH  082%=      5-min Rain = 0
KPD4 250841Z 18011KT 19/16 A2994 RMK A01 T01920161  RH  082%=      5-min Rain = 0
KPD4 250842Z 17011KT 19/16 A2994 RMK A01 T01910160  RH  082%=      5-min Rain = 0
KPD4 250843Z 17011KT 19/16 A2994 RMK A01 T01920161  RH  082%=      5-min Rain = 0
KPD4 250844Z 17010KT 19/16 A2994 RMK A01 T01920161  RH  083%=      5-min Rain = 0
KPD4 250845Z 17011KT 19/16 A2994 RMK A01 T01910162  RH  083%=      5-min Rain = 0
KPD4 250846Z 17011KT 19/16 A2993 RMK A01 T01920162  RH  083%=      5-min Rain = 0
KPD4 250847Z 17010KT 19/16 A2993 RMK A01 T01920162  RH  083%=      5-min Rain = 0
KPD4 250848Z 17010KT 19/16 A2994 RMK A01 T01920163  RH  083%=      5-min Rain = 0
KPD4 250849Z 18011KT 19/16 A2994 RMK A01 T01920163  RH  083%=      5-min Rain = 0
KPD4 250850Z 18011KT 19/16 A2994 RMK A01 T01930164  RH  083%=      5-min Rain = 0
KPD4 250851Z 19010KT 19/16 A2994 RMK A01 T01930164  RH  083%=      5-min Rain = 0
KPD4 250852Z 19008KT 19/16 A2994 RMK A01 T01940164  RH  083%=      5-min Rain = 0
KPD4 250853Z 19008KT 19/17 A2994 RMK A01 T01940165  RH  083%=      5-min Rain = 0
KPD4 250854Z 19007KT 19/17 A2994 RMK A01 T01940165  RH  083%=      5-min Rain = 0
KPD4 250855Z 20006KT 19/17 A2994 RMK A01 T01940166  RH  083%=      5-min Rain = 0
KPD4 250856Z 20006KT 20/17 A2994 RMK A01 T01950166  RH  083%=      5-min Rain = 0
KPD4 250857Z 20008KT 20/17 A2994 RMK A01 T01950166  RH  083%=      5-min Rain = 0
KPD4 250858Z 19006KT 20/17 A2995 RMK A01 T01950166  RH  083%=      5-min Rain = 0
KPD4 250859Z 20008KT 20/17 A2995 RMK A01 T01950166  RH  083%=      5-min Rain = 0
KPD4 250900Z 19007KT 20/17 A2994 RMK A01 T01950165  RH  083%=      5-min Rain = 0
KPD4 250901Z 18007KT 20/17 A2994 RMK A01 T01950165  RH  083%=      5-min Rain = 0
KPD4 250902Z 19008KT 20/17 A2994 RMK A01 T01950166  RH  083%=      5-min Rain = 0
KPD4 250903Z 19010KT 20/17 A2994 RMK A01 T01950167  RH  084%=      5-min Rain = 0
KPD4 250904Z 19011KT 20/17 A2994 RMK A01 T01950167  RH  084%=      5-min Rain = 0
KPD4 250905Z 19010KT 20/17 A2994 RMK A01 T01960167  RH  083%=      5-min Rain = 0
KPD4 250906Z 18011KT 20/17 A2994 RMK A01 T01960167  RH  083%=      5-min Rain = 0
KPD4 250907Z 18011KT 20/17 A2994 RMK A01 T01970168  RH  083%=      5-min Rain = 0
KPD4 250908Z 18011KT 20/17 A2994 RMK A01 T01970168  RH  083%=      5-min Rain = 0
KPD4 250909Z 18013KT 20/17 A2994 RMK A01 T01970168  RH  083%=      5-min Rain = 0
KPD4 250910Z 18013KT 20/17 A2994 RMK A01 T01980168  RH  083%=      5-min Rain = 0
KPD4 250911Z 18013KT 20/17 A2994 RMK A01 T01980168  RH  083%=      5-min Rain = 0
KPD4 250912Z 18011KT 20/17 A2994 RMK A01 T01990169  RH  083%=      5-min Rain = 0
KPD4 250913Z 17010KT 20/17 A2994 RMK A01 T01980169  RH  083%=      5-min Rain = 0
KPD4 250914Z 17010KT 20/17 A2994 RMK A01 T01980169  RH  083%=      5-min Rain = 0
KPD4 250915Z 18010KT 20/17 A2994 RMK A01 T01980169  RH  083%=      5-min Rain = 0
KPD4 250916Z 18011KT 20/17 A2994 RMK A01 T01980169  RH  084%=      5-min Rain = 0
KPD4 250917Z 18010KT 20/17 A2994 RMK A01 T01980169  RH  084%=      5-min Rain = 0
KPD4 250918Z 19008KT 20/17 A2994 RMK A01 T01980169  RH  083%=      5-min Rain = 0
KPD4 250919Z 19008KT 20/17 A2995 RMK A01 T01990170  RH  084%=      5-min Rain = 0
KPD4 250920Z 19008KT 20/17 A2995 RMK A01 T01980170  RH  084%=      5-min Rain = 0
KPD4 250921Z 19007KT 20/17 A2995 RMK A01 T01980170  RH  084%=      5-min Rain = 0
KPD4 250922Z 19008KT 20/17 A2995 RMK A01 T01980170  RH  084%=      5-min Rain = 0
KPD4 250923Z 19007KT 20/17 A2995 RMK A01 T01980170  RH  084%=      5-min Rain = 0
KPD4 250924Z 18008KT 20/17 A2995 RMK A01 T01980171  RH  084%=      5-min Rain = 0
KPD4 250925Z 18007KT 20/17 A2995 RMK A01 T01980170  RH  084%=      5-min Rain = 0
KPD4 250926Z 18007KT 20/17 A2995 RMK A01 T01980171  RH  084%=      5-min Rain = 0
KPD4 250927Z 18006KT 20/17 A2995 RMK A01 T01970171  RH  085%=      5-min Rain = 0
KPD4 250928Z 18006KT 20/17 A2995 RMK A01 T01980171  RH  085%=      5-min Rain = 0
KPD4 250929Z 18008KT 20/17 A2995 RMK A01 T01980172  RH  085%=      5-min Rain = 0
KPD4 250930Z 17008KT 20/17 A2995 RMK A01 T01970172  RH  085%=      5-min Rain = 0
KPD4 250931Z 18007KT 20/17 A2995 RMK A01 T01970172  RH  085%=      5-min Rain = 0
KPD4 250932Z 19007KT 20/17 A2995 RMK A01 T01980173  RH  086%=      5-min Rain = 0
KPD4 250933Z 19008KT 20/17 A2995 RMK A01 T01970173  RH  086%=      5-min Rain = 0
KPD4 250934Z 19007KT 20/17 A2995 RMK A01 T01970173  RH  086%=      5-min Rain = 0
KPD4 250935Z 19006KT 20/17 A2995 RMK A01 T01970173  RH  086%=      5-min Rain = 0
KPD4 250936Z 19007KT 20/17 A2995 RMK A01 T01960173  RH  086%=      5-min Rain = 0
KPD4 250937Z 18006KT 20/17 A2995 RMK A01 T01960174  RH  087%=      5-min Rain = 0
KPD4 250938Z 18006KT 20/17 A2995 RMK A01 T01960174  RH  087%=      5-min Rain = 0
KPD4 250939Z 18007KT 20/17 A2995 RMK A01 T01960174  RH  087%=      5-min Rain = 0
KPD4 250940Z 18008KT 20/17 A2995 RMK A01 T01960174  RH  087%=      5-min Rain = 0
KPD4 250941Z 19008KT 20/17 A2995 RMK A01 T01960174  RH  088%=      5-min Rain = 0
KPD4 250942Z 19008KT 20/18 A2995 RMK A01 T01960175  RH  087%=      5-min Rain = 0
KPD4 250943Z 19007KT 20/18 A2995 RMK A01 T01960175  RH  087%=      5-min Rain = 0
KPD4 250944Z 19008KT 20/18 A2996 RMK A01 T01960175  RH  088%=      5-min Rain = 0
KPD4 250945Z 19008KT 20/18 A2996 RMK A01 T01960175  RH  088%=      5-min Rain = 0
KPD4 250946Z 19009KT 20/18 A2996 RMK A01 T01960175  RH  088%=      5-min Rain = 0
KPD4 250947Z 19009KT 20/18 A2996 RMK A01 T01960175  RH  088%=      5-min Rain = 0
KPD4 250948Z 19009KT 20/18 A2996 RMK A01 T01960175  RH  088%=      5-min Rain = 0
KPD4 250949Z 19009KT 20/18 A2996 RMK A01 T01950175  RH  088%=      5-min Rain = 0
KPD4 250950Z 19009KT 20/18 A2996 RMK A01 T01960176  RH  088%=      5-min Rain = 0
KPD4 250951Z 19009KT 20/18 A2996 RMK A01 T01960176  RH  088%=      5-min Rain = 0
KPD4 250952Z 19009KT 20/18 A2996 RMK A01 T01960176  RH  088%=      5-min Rain = 0
KPD4 250953Z 19010KT 20/18 A2996 RMK A01 T01960175  RH  088%=      5-min Rain = 0
KPD4 250954Z 19008KT 20/18 A2996 RMK A01 T01960175  RH  088%=      5-min Rain = 0
KPD4 250955Z 19010KT 20/18 A2996 RMK A01 T01950175  RH  088%=      5-min Rain = 0
KPD4 250956Z 19009KT 20/18 A2996 RMK A01 T01950175  RH  088%=      5-min Rain = 0
KPD4 250957Z 18009KT 20/18 A2996 RMK A01 T01950176  RH  089%=      5-min Rain = 0
KPD4 250958Z 19010KT 20/18 A2996 RMK A01 T01950176  RH  089%=      5-min Rain = 0
KPD4 250959Z 18010KT 20/18 A2996 RMK A01 T01950176  RH  089%=      5-min Rain = 0
KPD4 251000Z 19010KT 20/18 A2996 RMK A01 T01950176  RH  089%=      5-min Rain = 0
KPD4 251001Z 18010KT 19/18 A2996 RMK A01 T01940176  RH  089%=      5-min Rain = 0
KPD4 251002Z 18009KT 19/18 A2996 RMK A01 T01940176  RH  089%=      5-min Rain = 0
KPD4 251003Z 18009KT 19/18 A2996 RMK A01 T01940176  RH  089%=      5-min Rain = 0
KPD4 251004Z 18009KT 19/18 A2996 RMK A01 T01930176  RH  090%=      5-min Rain = 0
KPD4 251005Z 18010KT 19/18 A2996 RMK A01 T01930176  RH  090%=      5-min Rain = 0
KPD4 251006Z 18010KT 19/18 A2996 RMK A01 T01930176  RH  090%=      5-min Rain = 0
KPD4 251007Z 18010KT 19/18 A2996 RMK A01 T01940177  RH  090%=      5-min Rain = 0
KPD4 251008Z 18010KT 19/18 A2996 RMK A01 T01940177  RH  090%=      5-min Rain = 0
KPD4 251009Z 18009KT 19/18 A2996 RMK A01 T01930177  RH  090%=      5-min Rain = 0
KPD4 251010Z 18010KT 19/18 A2996 RMK A01 T01930177  RH  090%=      5-min Rain = 0
KPD4 251011Z 18009KT 19/18 A2996 RMK A01 T01920176  RH  090%=      5-min Rain = 0
KPD4 251012Z 18010KT 19/18 A2996 RMK A01 T01930177  RH  091%=      5-min Rain = 0
KPD4 251013Z 18010KT 19/18 A2996 RMK A01 T01930177  RH  091%=      5-min Rain = 0
KPD4 251014Z 18010KT 19/18 A2996 RMK A01 T01930178  RH  091%=      5-min Rain = 0
KPD4 251015Z 18011KT 19/18 A2996 RMK A01 T01930178  RH  091%=      5-min Rain = 0
KPD4 251016Z 18011KT 19/18 A2996 RMK A01 T01930178  RH  091%=      5-min Rain = 0
KPD4 251017Z 18012KT 19/18 A2996 RMK A01 T01930178  RH  091%=      5-min Rain = 0
KPD4 251018Z 19012KT 19/18 A2996 RMK A01 T01940179  RH  091%=      5-min Rain = 0
KPD4 251019Z 19012KT 19/18 A2996 RMK A01 T01940179  RH  091%=      5-min Rain = 0
KPD4 251020Z 19012KT 20/18 A2996 RMK A01 T01950180  RH  091%=      5-min Rain = 0
KPD4 251021Z 19011KT 20/18 A2996 RMK A01 T01950179  RH  091%=      5-min Rain = 0
KPD4 251022Z 19012KT 20/18 A2996 RMK A01 T01950179  RH  091%=      5-min Rain = 0
KPD4 251023Z 19011KT 20/18 A2996 RMK A01 T01950180  RH  091%=      5-min Rain = 0
KPD4 251024Z 19011KT 20/18 A2996 RMK A01 T01950180  RH  091%=      5-min Rain = 0
KPD4 251025Z 19012KT 20/18 A2996 RMK A01 T01950180  RH  091%=      5-min Rain = 0
KPD4 251026Z 19011KT 20/18 A2996 RMK A01 T01950180  RH  091%=      5-min Rain = 0
KPD4 251027Z 19011KT 20/18 A2996 RMK A01 T01950180  RH  091%=      5-min Rain = 0
KPD4 251028Z 19011KT 20/18 A2996 RMK A01 T01950180  RH  091%=      5-min Rain = 0
KPD4 251029Z 19011KT 20/18 A2996 RMK A01 T01950180  RH  091%=      5-min Rain = 0
KPD4 251030Z 19011KT 20/18 A2996 RMK A01 T01950180  RH  091%=      5-min Rain = 0
KPD4 251031Z 19013KT 20/18 A2996 RMK A01 T01950180  RH  091%=      5-min Rain = 0
KPD4 251032Z 19011KT 20/18 A2996 RMK A01 T01950180  RH  091%=      5-min Rain = 0
KPD4 251033Z 19011KT 20/18 A2996 RMK A01 T01960180  RH  091%=      5-min Rain = 0
KPD4 251034Z 19011KT 20/18 A2996 RMK A01 T01950180  RH  091%=      5-min Rain = 0
KPD4 251035Z 19011KT 20/18 A2996 RMK A01 T01950180  RH  091%=      5-min Rain = 0
KPD4 251036Z 19010KT 20/18 A2996 RMK A01 T01950181  RH  091%=      5-min Rain = 0
KPD4 251037Z 19010KT 19/18 A2996 RMK A01 T01940180  RH  091%=      5-min Rain = 0
KPD4 251038Z 18010KT 19/18 A2996 RMK A01 T01940180  RH  092%=      5-min Rain = 0
KPD4 251039Z 19009KT 19/18 A2996 RMK A01 T01940180  RH  092%=      5-min Rain = 0
KPD4 251040Z 19010KT 19/18 A2996 RMK A01 T01930180  RH  092%=      5-min Rain = 0
KPD4 251041Z 19009KT 19/18 A2996 RMK A01 T01930180  RH  092%=      5-min Rain = 0
KPD4 251042Z 19008KT 19/18 A2996 RMK A01 T01930180  RH  092%=      5-min Rain = 0
KPD4 251043Z 19008KT 19/18 A2996 RMK A01 T01930180  RH  092%=      5-min Rain = 0
KPD4 251044Z 18009KT 19/18 A2996 RMK A01 T01930181  RH  092%=      5-min Rain = 0
KPD4 251045Z 19008KT 19/18 A2996 RMK A01 T01930181  RH  093%=      5-min Rain = 0
KPD4 251046Z 18008KT 19/18 A2996 RMK A01 T01930181  RH  093%=      5-min Rain = 0
KPD4 251047Z 18007KT 19/18 A2996 RMK A01 T01920180  RH  093%=      5-min Rain = 0
KPD4 251048Z 18009KT 19/18 A2996 RMK A01 T01920180  RH  093%=      5-min Rain = 0
KPD4 251049Z 18008KT 19/18 A2997 RMK A01 T01920181  RH  093%=      5-min Rain = 0
KPD4 251050Z 19007KT 19/18 A2996 RMK A01 T01920181  RH  093%=      5-min Rain = 0
KPD4 251051Z 19006KT 19/18 A2997 RMK A01 T01920180  RH  093%=      5-min Rain = 0
KPD4 251052Z 19007KT 19/18 A2997 RMK A01 T01910180  RH  093%=      5-min Rain = 0
KPD4 251053Z 19006KT 19/18 A2997 RMK A01 T01910180  RH  094%=      5-min Rain = 0
KPD4 251054Z 19005KT 19/18 A2997 RMK A01 T01910180  RH  093%=      5-min Rain = 0
KPD4 251055Z 19005KT 19/18 A2997 RMK A01 T01900179  RH  093%=      5-min Rain = 0
KPD4 251056Z 19005KT 19/18 A2997 RMK A01 T01890179  RH  094%=      5-min Rain = 0
KPD4 251057Z 19005KT 19/18 A2997 RMK A01 T01890179  RH  094%=      5-min Rain = 0
KPD4 251058Z 19005KT 19/18 A2997 RMK A01 T01890179  RH  094%=      5-min Rain = 0
KPD4 251059Z 19005KT 19/18 A2997 RMK A01 T01890179  RH  094%=      5-min Rain = 0
KPD4 251100Z 19004KT 19/18 A2997 RMK A01 T01890179  RH  094%=      5-min Rain = 0
KPD4 251101Z 18004KT 19/18 A2997 RMK A01 T01880178  RH  094%=      5-min Rain = 0
KPD4 251102Z 18004KT 19/18 A2997 RMK A01 T01880178  RH  094%=      5-min Rain = 0
KPD4 251103Z 18004KT 19/18 A2997 RMK A01 T01880178  RH  094%=      5-min Rain = 0
KPD4 251104Z 17004KT 19/18 A2997 RMK A01 T01870178  RH  094%=      5-min Rain = 0
KPD4 251105Z 17003KT 19/18 A2997 RMK A01 T01870178  RH  094%=      5-min Rain = 0
KPD4 251106Z 17003KT 19/18 A2997 RMK A01 T01870178  RH  094%=      5-min Rain = 0
KPD4 251107Z 16004KT 19/18 A2997 RMK A01 T01870178  RH  094%=      5-min Rain = 0
KPD4 251108Z 16004KT 19/18 A2998 RMK A01 T01870178  RH  094%=      5-min Rain = 0
KPD4 251109Z 16004KT 19/18 A2998 RMK A01 T01870178  RH  094%=      5-min Rain = 0
KPD4 251110Z 15003KT 19/18 A2998 RMK A01 T01870177  RH  094%=      5-min Rain = 0
KPD4 251111Z 15003KT 19/18 A2998 RMK A01 T01860177  RH  094%=      5-min Rain = 0
KPD4 251112Z 14003KT 19/18 A2998 RMK A01 T01860177  RH  094%=      5-min Rain = 0
KPD4 251113Z 14003KT 19/18 A2998 RMK A01 T01860177  RH  094%=      5-min Rain = 0
KPD4 251114Z 12002KT 19/18 A2998 RMK A01 T01860177  RH  095%=      5-min Rain = 0
KPD4 251115Z 11002KT 19/18 A2998 RMK A01 T01860177  RH  095%=      5-min Rain = 0
KPD4 251116Z 10002KT 19/18 A2998 RMK A01 T01850177  RH  095%=      5-min Rain = 0
KPD4 251117Z 10002KT 19/18 A2998 RMK A01 T01850178  RH  095%=      5-min Rain = 0
KPD4 251118Z 10002KT 19/18 A2998 RMK A01 T01850178  RH  095%=      5-min Rain = 0
KPD4 251119Z 10002KT 19/18 A2998 RMK A01 T01850178  RH  095%=      5-min Rain = 0
KPD4 251120Z 11002KT 19/18 A2998 RMK A01 T01860179  RH  096%=      5-min Rain = 0
KPD4 251121Z 13003KT 19/18 A2998 RMK A01 T01870179  RH  095%=      5-min Rain = 0
KPD4 251122Z 12003KT 19/18 A2998 RMK A01 T01870179  RH  095%=      5-min Rain = 0
KPD4 251123Z 11004KT 19/18 A2998 RMK A01 T01870179  RH  095%=      5-min Rain = 0
KPD4 251124Z 10004KT 19/18 A2998 RMK A01 T01870178  RH  094%=      5-min Rain = 0
KPD4 251125Z 11004KT 19/18 A2998 RMK A01 T01860176  RH  094%=      5-min Rain = 0
KPD4 251126Z 11004KT 19/18 A2998 RMK A01 T01850175  RH  094%=      5-min Rain = 0
KPD4 251127Z 12005KT 18/18 A2998 RMK A01 T01840176  RH  095%=      5-min Rain = 0
KPD4 251128Z 13005KT 18/18 A2998 RMK A01 T01840176  RH  095%=      5-min Rain = 0
KPD4 251129Z 13005KT 18/18 A2998 RMK A01 T01840177  RH  095%=      5-min Rain = 0
KPD4 251130Z 13005KT 18/18 A2998 RMK A01 T01840176  RH  095%=      5-min Rain = 0
KPD4 251131Z 13006KT 18/18 A2998 RMK A01 T01840177  RH  095%=      5-min Rain = 0
KPD4 251132Z 13005KT 19/18 A2999 RMK A01 T01850178  RH  095%=      5-min Rain = 0
KPD4 251133Z 13005KT 19/18 A2999 RMK A01 T01850178  RH  095%=      5-min Rain = 0
KPD4 251134Z 12005KT 19/18 A2999 RMK A01 T01860179  RH  096%=      5-min Rain = 0
KPD4 251135Z 13006KT 19/18 A2999 RMK A01 T01860178  RH  095%=      5-min Rain = 0
KPD4 251136Z 13004KT 19/18 A2999 RMK A01 T01860178  RH  095%=      5-min Rain = 0
KPD4 251137Z 12004KT 19/18 A2999 RMK A01 T01860178  RH  095%=      5-min Rain = 0
KPD4 251138Z 11003KT 19/18 A2999 RMK A01 T01860178  RH  095%=      5-min Rain = 0
KPD4 251139Z 12003KT 19/18 A2999 RMK A01 T01850178  RH  095%=      5-min Rain = 0
KPD4 251140Z 12003KT 19/18 A2999 RMK A01 T01860179  RH  096%=      5-min Rain = 0
KPD4 251141Z 13004KT 19/18 A2999 RMK A01 T01860179  RH  096%=      5-min Rain = 0
KPD4 251142Z 13004KT 19/18 A2999 RMK A01 T01860179  RH  096%=      5-min Rain = 0
KPD4 251143Z 13004KT 19/18 A2999 RMK A01 T01850178  RH  096%=      5-min Rain = 0
KPD4 251144Z 14005KT 19/18 A2999 RMK A01 T01850179  RH  096%=      5-min Rain = 0
KPD4 251145Z 13004KT 19/18 A2999 RMK A01 T01850178  RH  096%=      5-min Rain = 0
KPD4 251146Z 15004KT 19/18 A2999 RMK A01 T01850178  RH  096%=      5-min Rain = 0
KPD4 251147Z 15004KT 19/18 A2999 RMK A01 T01850179  RH  096%=      5-min Rain = 0
KPD4 251148Z 16004KT 19/18 A2999 RMK A01 T01850179  RH  096%=      5-min Rain = 0
KPD4 251149Z 15004KT 19/18 A2999 RMK A01 T01850179  RH  096%=      5-min Rain = 0
KPD4 251150Z 15004KT 19/18 A2999 RMK A01 T01850179  RH  096%=      5-min Rain = 0
KPD4 251151Z 15005KT 19/18 A2999 RMK A01 T01850179  RH  096%=      5-min Rain = 0
KPD4 251152Z 15005KT 19/18 A2999 RMK A01 T01860179  RH  096%=      5-min Rain = 0
KPD4 251153Z 14005KT 19/18 A2999 RMK A01 T01860179  RH  096%=      5-min Rain = 0
KPD4 251154Z 14006KT 19/18 A2999 RMK A01 T01860179  RH  096%=      5-min Rain = 0
KPD4 251155Z 14005KT 19/18 A2999 RMK A01 T01860180  RH  096%=      5-min Rain = 0
KPD4 251156Z 14005KT 19/18 A2999 RMK A01 T01860180  RH  096%=      5-min Rain = 0
KPD4 251157Z 14005KT 19/18 A2999 RMK A01 T01870180  RH  096%=      5-min Rain = 0
KPD4 251158Z 14005KT 19/18 A2999 RMK A01 T01860179  RH  096%=      5-min Rain = 0
KPD4 251159Z 14005KT 19/18 A2999 RMK A01 T01860179  RH  096%=      5-min Rain = 0
KPD4 251200Z 13004KT 19/18 A2999 RMK A01 T01850179  RH  096%=      5-min Rain = 0
KPD4 251201Z 13004KT 19/18 A2999 RMK A01 T01860179  RH  096%=      5-min Rain = 0
KPD4 251202Z 13005KT 19/18 A2999 RMK A01 T01850178  RH  096%=      5-min Rain = 0
KPD4 251203Z 12005KT 19/18 A2999 RMK A01 T01850178  RH  096%=      5-min Rain = 0
KPD4 251204Z 12005KT 19/18 A2999 RMK A01 T01850178  RH  096%=      5-min Rain = 0
KPD4 251205Z 13005KT 19/18 A2999 RMK A01 T01850179  RH  096%=      5-min Rain = 0
KPD4 251206Z 12005KT 19/18 A30 RMK A01 T01850179  RH  096%=      5-min Rain = 0
KPD4 251207Z 12004KT 19/18 A30 RMK A01 T01850179  RH  096%=      5-min Rain = 0
KPD4 251208Z 12004KT 18/18 A30 RMK A01 T01840178  RH  096%=      5-min Rain = 0
KPD4 251209Z 12004KT 18/18 A30 RMK A01 T01840178  RH  096%=      5-min Rain = 0
KPD4 251210Z 11004KT 18/18 A30 RMK A01 T01840179  RH  096%=      5-min Rain = 0
KPD4 251211Z 10004KT 18/18 A30 RMK A01 T01840179  RH  097%=      5-min Rain = 0
KPD4 251212Z 11004KT 18/18 A30 RMK A01 T01840178  RH  096%=      5-min Rain = 0
KPD4 251213Z 10004KT 18/18 A30 RMK A01 T01830177  RH  096%=      5-min Rain = 0
KPD4 251214Z 10004KT 18/18 A30 RMK A01 T01830177  RH  096%=      5-min Rain = 0
KPD4 251215Z 10003KT 18/18 A30 RMK A01 T01830179  RH  097%=      5-min Rain = 0
KPD4 251216Z 10004KT 18/18 A30 RMK A01 T01830178  RH  097%=      5-min Rain = 0
KPD4 251217Z 10005KT 18/18 A30 RMK A01 T01830178  RH  097%=      5-min Rain = 0
KPD4 251218Z 11006KT 18/18 A30 RMK A01 T01830178  RH  097%=      5-min Rain = 0
KPD4 251219Z 11006KT 18/18 A30 RMK A01 T01830178  RH  097%=      5-min Rain = 0
KPD4 251220Z 11006KT 18/18 A30 RMK A01 T01840180  RH  097%=      5-min Rain = 0
KPD4 251221Z 11005KT 19/18 A30 RMK A01 T01850181  RH  098%=      5-min Rain = 0
KPD4 251222Z 11006KT 19/18 A30 RMK A01 T01860182  RH  098%=      5-min Rain = 0
KPD4 251223Z 11006KT 19/18 A30 RMK A01 T01860182  RH  098%=      5-min Rain = 0
KPD4 251224Z 11005KT 19/18 A30 RMK A01 T01870183  RH  098%=      5-min Rain = 0
KPD4 251225Z 11005KT 19/18 A30 RMK A01 T01880184  RH  097%=      5-min Rain = 0
KPD4 251226Z 11005KT 19/18 A30 RMK A01 T01880184  RH  097%=      5-min Rain = 0
KPD4 251227Z 11004KT 19/18 A30 RMK A01 T01880184  RH  097%=      5-min Rain = 0
KPD4 251228Z 12006KT 19/18 A2999 RMK A01 T01880183  RH  097%=      5-min Rain = 0
KPD4 251229Z 12005KT 19/18 A2999 RMK A01 T01890184  RH  097%=      5-min Rain = 0
KPD4 251230Z 12006KT 19/18 A2999 RMK A01 T01890184  RH  097%=      5-min Rain = 0
KPD4 251231Z 12006KT 19/18 A2999 RMK A01 T01900184  RH  096%=      5-min Rain = 0
KPD4 251232Z 12006KT 19/19 A2999 RMK A01 T01910185  RH  096%=      5-min Rain = 0
KPD4 251233Z 13006KT 19/19 A2999 RMK A01 T01920185  RH  096%=      5-min Rain = 0
KPD4 251234Z 14006KT 19/19 A2999 RMK A01 T01920186  RH  096%=      5-min Rain = 0
KPD4 251235Z 14006KT 19/19 A2999 RMK A01 T01920185  RH  096%=      5-min Rain = 0
KPD4 251236Z 14006KT 19/19 A2999 RMK A01 T01930185  RH  095%=      5-min Rain = 0
KPD4 251237Z 14006KT 19/19 A2999 RMK A01 T01930185  RH  095%=      5-min Rain = 0
KPD4 251238Z 14006KT 19/19 A2999 RMK A01 T01940186  RH  095%=      5-min Rain = 0
KPD4 251239Z 15007KT 19/19 A2999 RMK A01 T01940186  RH  095%=      5-min Rain = 0
KPD4 251240Z 15006KT 20/19 A2999 RMK A01 T01950187  RH  095%=      5-min Rain = 0
KPD4 251241Z 15006KT 20/19 A2999 RMK A01 T01960187  RH  095%=      5-min Rain = 0
KPD4 251242Z 15006KT 20/19 A2999 RMK A01 T01960188  RH  095%=      5-min Rain = 0
KPD4 251243Z 15007KT 20/19 A2999 RMK A01 T01970188  RH  095%=      5-min Rain = 0
KPD4 251244Z 15006KT 20/19 A2999 RMK A01 T01970188  RH  094%=      5-min Rain = 0
KPD4 251245Z 15005KT 20/19 A2999 RMK A01 T01980189  RH  094%=      5-min Rain = 0
KPD4 251246Z 15005KT 20/19 A2999 RMK A01 T01990189  RH  094%=      5-min Rain = 0
KPD4 251247Z 15005KT 20/19 A2999 RMK A01 T01990189  RH  094%=      5-min Rain = 0
KPD4 251248Z 16005KT 20/19 A2999 RMK A01 T01990189  RH  094%=      5-min Rain = 0
KPD4 251249Z 16006KT 20/19 A2999 RMK A01 T02000190  RH  094%=      5-min Rain = 0
KPD4 251250Z 16007KT 20/19 A2999 RMK A01 T02000190  RH  093%=      5-min Rain = 0
KPD4 251251Z 17007KT 20/19 A2999 RMK A01 T02010190  RH  093%=      5-min Rain = 0
KPD4 251252Z 16007KT 20/19 A2999 RMK A01 T02010190  RH  093%=      5-min Rain = 0
KPD4 251253Z 16006KT 20/19 A2999 RMK A01 T02020191  RH  093%=      5-min Rain = 0
KPD4 251254Z 16006KT 20/19 A2999 RMK A01 T02020191  RH  093%=      5-min Rain = 0
KPD4 251255Z 16006KT 20/19 A2999 RMK A01 T02020191  RH  094%=      5-min Rain = 0
KPD4 251256Z 17006KT 20/19 A2999 RMK A01 T02020191  RH  093%=      5-min Rain = 0
KPD4 251257Z 16006KT 20/19 A2999 RMK A01 T02020190  RH  093%=      5-min Rain = 0
KPD4 251258Z 16005KT 20/19 A2999 RMK A01 T02020190  RH  093%=      5-min Rain = 0
KPD4 251259Z 17007KT 20/19 A2999 RMK A01 T02020190  RH  093%=      5-min Rain = 0
KPD4 251300Z 17005KT 20/19 A2999 RMK A01 T02020190  RH  093%=      5-min Rain = 0
KPD4 251301Z 17006KT 20/19 A2999 RMK A01 T02020190  RH  093%=      5-min Rain = 0
KPD4 251302Z 16006KT 20/19 A2999 RMK A01 T02020190  RH  093%=      5-min Rain = 0
KPD4 251303Z 16006KT 20/19 A2999 RMK A01 T02020191  RH  094%=      5-min Rain = 0
KPD4 251304Z 15006KT 20/19 A2999 RMK A01 T02020192  RH  094%=      5-min Rain = 0
KPD4 251305Z 16007KT 20/19 A2999 RMK A01 T02030192  RH  094%=      5-min Rain = 0
KPD4 251306Z 16006KT 20/19 A2999 RMK A01 T02030192  RH  093%=      5-min Rain = 0
KPD4 251307Z 15008KT 20/19 A2999 RMK A01 T02030192  RH  094%=      5-min Rain = 0
KPD4 251308Z 16008KT 20/19 A2999 RMK A01 T02030192  RH  094%=      5-min Rain = 0
KPD4 251309Z 16008KT 20/19 A2999 RMK A01 T02030193  RH  094%=      5-min Rain = 0
KPD4 251310Z 16009KT 20/19 A2999 RMK A01 T02030192  RH  093%=      5-min Rain = 0
KPD4 251311Z 16008KT 20/19 A2999 RMK A01 T02040193  RH  093%=      5-min Rain = 0
KPD4 251312Z 16008KT 20/19 A2999 RMK A01 T02040192  RH  093%=      5-min Rain = 0
KPD4 251313Z 16008KT 20/19 A2999 RMK A01 T02040192  RH  093%=      5-min Rain = 0
KPD4 251314Z 16006KT 20/19 A2999 RMK A01 T02040192  RH  093%=      5-min Rain = 0
KPD4 251315Z 16007KT 20/19 A30 RMK A01 T02040193  RH  093%=      5-min Rain = 0
KPD4 251316Z 17007KT 21/19 A30 RMK A01 T02050193  RH  093%=      5-min Rain = 0
KPD4 251317Z 17007KT 21/19 A30 RMK A01 T02050194  RH  093%=      5-min Rain = 0
KPD4 251318Z 16008KT 21/19 A30 RMK A01 T02050194  RH  093%=      5-min Rain = 0
KPD4 251319Z 15008KT 21/19 A30 RMK A01 T02050193  RH  092%=      5-min Rain = 0
KPD4 251320Z 16009KT 21/19 A30 RMK A01 T02060193  RH  092%=      5-min Rain = 0
KPD4 251321Z 17009KT 21/19 A30 RMK A01 T02070193  RH  092%=      5-min Rain = 0
KPD4 251322Z 17008KT 21/20 A30 RMK A01 T02080195  RH  092%=      5-min Rain = 0
KPD4 251323Z 17008KT 21/20 A30 RMK A01 T02080195  RH  092%=      5-min Rain = 0
KPD4 251324Z 17008KT 21/19 A30 RMK A01 T02090194  RH  091%=      5-min Rain = 0
KPD4 251325Z 16010KT 21/20 A30 RMK A01 T02100195  RH  091%=      5-min Rain = 0
KPD4 251326Z 17011KT 21/19 A30 RMK A01 T02100194  RH  091%=      5-min Rain = 0
KPD4 251327Z 17009KT 21/19 A30 RMK A01 T02110194  RH  090%=      5-min Rain = 0
KPD4 251328Z 17008KT 21/20 A30 RMK A01 T02110195  RH  090%=      5-min Rain = 0
KPD4 251329Z 17009KT 21/20 A30 RMK A01 T02120196  RH  090%=      5-min Rain = 0
KPD4 251330Z 16008KT 21/20 A30 RMK A01 T02130195  RH  089%=      5-min Rain = 0
KPD4 251331Z 17008KT 21/20 A30 RMK A01 T02130196  RH  090%=      5-min Rain = 0
KPD4 251332Z 18009KT 21/20 A30 RMK A01 T02140196  RH  090%=      5-min Rain = 0
KPD4 251333Z 17010KT 21/20 A30 RMK A01 T02140196  RH  089%=      5-min Rain = 0
KPD4 251334Z 17011KT 21/20 A30 RMK A01 T02140195  RH  089%=      5-min Rain = 0
KPD4 251335Z 17013KT 21/19 A30 RMK A01 T02130194  RH  089%=      5-min Rain = 0
KPD4 251336Z 17012KT 21/19 A30 RMK A01 T02120193  RH  089%=      5-min Rain = 0
KPD4 251337Z 17011KT 21/19 A30 RMK A01 T02110194  RH  090%=      5-min Rain = 0
KPD4 251338Z 17010KT 21/20 A30 RMK A01 T02110195  RH  091%=      5-min Rain = 0
KPD4 251339Z 17012KT 21/19 A30 RMK A01 T02110194  RH  090%=      5-min Rain = 0
KPD4 251340Z 18010KT 21/19 A30 RMK A01 T02110194  RH  090%=      5-min Rain = 0
KPD4 251341Z 18011KT 21/20 A30 RMK A01 T02110195  RH  091%=      5-min Rain = 0
KPD4 251342Z 17011KT 21/20 A30 RMK A01 T02110195  RH  091%=      5-min Rain = 0
KPD4 251343Z 17012KT 21/20 A30 RMK A01 T02120195  RH  090%=      5-min Rain = 0
KPD4 251344Z 17011KT 21/20 A30 RMK A01 T02130195  RH  090%=      5-min Rain = 0
KPD4 251345Z 18012KT 21/20 A30 RMK A01 T02140195  RH  089%=      5-min Rain = 0
KPD4 251346Z 18014KT 21/20 A30 RMK A01 T02140195  RH  088%=      5-min Rain = 0
KPD4 251347Z 18013KT 22/19 A30 RMK A01 T02150194  RH  088%=      5-min Rain = 0
KPD4 251348Z 18012KT 21/19 A30 RMK A01 T02140194  RH  088%=      5-min Rain = 0
KPD4 251349Z 18012KT 22/19 A30 RMK A01 T02150194  RH  088%=      5-min Rain = 0
KPD4 251350Z 18013KT 22/19 A30 RMK A01 T02150194  RH  088%=      5-min Rain = 0
KPD4 251351Z 17013KT 22/20 A30 RMK A01 T02160195  RH  088%=      5-min Rain = 0
KPD4 251352Z 18010KT 22/20 A30 RMK A01 T02170196  RH  088%=      5-min Rain = 0
KPD4 251353Z 17011KT 22/20 A30 RMK A01 T02180198  RH  088%=      5-min Rain = 0
KPD4 251354Z 17011KT 22/20 A30 RMK A01 T02190196  RH  087%=      5-min Rain = 0
KPD4 251355Z 17011KT 22/20 A30 RMK A01 T02200196  RH  086%=      5-min Rain = 0
KPD4 251356Z 17010KT 22/20 A30 RMK A01 T02200196  RH  086%=      5-min Rain = 0
KPD4 251357Z 17011KT 22/20 A30 RMK A01 T02210197  RH  086%=      5-min Rain = 0
KPD4 251358Z 17011KT 22/20 A30 RMK A01 T02220197  RH  086%=      5-min Rain = 0
KPD4 251359Z 17010KT 22/20 A30 RMK A01 T02220196  RH  085%=      5-min Rain = 0
KPD4 251400Z 18009KT 22/20 A30 RMK A01 T02240198  RH  085%=      5-min Rain = 0
KPD4 251401Z 18009KT 23/20 A30 RMK A01 T02250197  RH  085%=      5-min Rain = 0
KPD4 251402Z 18009KT 23/20 A30 RMK A01 T02260199  RH  085%=      5-min Rain = 0
KPD4 251403Z 17012KT 23/20 A30 RMK A01 T02270196  RH  083%=      5-min Rain = 0
KPD4 251404Z 18011KT 23/20 A30 RMK A01 T02270196  RH  082%=      5-min Rain = 0
KPD4 251405Z 17011KT 23/20 A30 RMK A01 T02280195  RH  082%=      5-min Rain = 0
KPD4 251406Z 18012KT 23/20 A30 RMK A01 T02280196  RH  082%=      5-min Rain = 0
KPD4 251407Z 18012KT 23/20 A30 RMK A01 T02290196  RH  082%=      5-min Rain = 0
KPD4 251408Z 19011KT 23/20 A30 RMK A01 T02300195  RH  081%=      5-min Rain = 0
KPD4 251409Z 19012KT 23/19 A30 RMK A01 T02300194  RH  080%=      5-min Rain = 0
KPD4 251410Z 19013KT 23/19 A30 RMK A01 T02300193  RH  080%=      5-min Rain = 0
KPD4 251411Z 19011KT 23/19 A30 RMK A01 T02300194  RH  080%=      5-min Rain = 0
KPD4 251412Z 19013KT 23/20 A30 RMK A01 T02300195  RH  080%=      5-min Rain = 0
KPD4 251413Z 19012KT 23/19 A30 RMK A01 T02300194  RH  080%=      5-min Rain = 0
KPD4 251414Z 19011KT 23/20 A30 RMK A01 T02300196  RH  081%=      5-min Rain = 0
KPD4 251415Z 19011KT 23/20 A30 RMK A01 T02310196  RH  080%=      5-min Rain = 0
KPD4 251416Z 20009KT 23/20 A30 RMK A01 T02330195  RH  079%=      5-min Rain = 0
KPD4 251417Z 19009KT 23/20 A30 RMK A01 T02330197  RH  080%=      5-min Rain = 0
KPD4 251418Z 17011KT 23/20 A30 RMK A01 T02340197  RH  080%=      5-min Rain = 0
KPD4 251419Z 19012KT 24/20 A30 RMK A01 T02360197  RH  079%=      5-min Rain = 0
KPD4 251420Z 19009KT 24/20 A30 RMK A01 T02370196  RH  078%=      5-min Rain = 0
KPD4 251421Z 19010KT 24/20 A30 RMK A01 T02370197  RH  078%=      5-min Rain = 0
KPD4 251422Z 18010KT 24/20 A30 RMK A01 T02380197  RH  078%=      5-min Rain = 0
KPD4 251423Z 17011KT 24/20 A30 RMK A01 T02400198  RH  077%=      5-min Rain = 0
KPD4 251424Z 18013KT 24/20 A30 RMK A01 T02410198  RH  077%=      5-min Rain = 0
KPD4 251425Z 17013KT 24/20 A30 RMK A01 T02410195  RH  075%=      5-min Rain = 0
KPD4 251426Z 17013KT 24/19 A30 RMK A01 T02390194  RH  076%=      5-min Rain = 0
KPD4 251427Z 17013KT 24/19 A30 RMK A01 T02390194  RH  076%=      5-min Rain = 0
KPD4 251428Z 18014KT 24/19 A30 RMK A01 T02400189  RH  073%=      5-min Rain = 0
KPD4 251429Z 19013KT 24/19 A30 RMK A01 T02410189  RH  073%=      5-min Rain = 0
KPD4 251430Z 19015KT 24/19 A30 RMK A01 T02400189  RH  073%=      5-min Rain = 0
KPD4 251431Z 19013KT 24/19 A30 RMK A01 T02400188  RH  072%=      5-min Rain = 0
KPD4 251432Z 18015KT 24/19 A30 RMK A01 T02400187  RH  072%=      5-min Rain = 0
KPD4 251433Z 18012KT 24/19 A30 RMK A01 T02400187  RH  072%=      5-min Rain = 0
KPD4 251434Z 17014KT 24/19 A30 RMK A01 T02400188  RH  072%=      5-min Rain = 0
KPD4 251435Z 18011KT 24/19 A30 RMK A01 T02410190  RH  073%=      5-min Rain = 0
KPD4 251436Z 18013KT 24/19 A30 RMK A01 T02430192  RH  073%=      5-min Rain = 0
KPD4 251437Z 19013KT 24/19 A30 RMK A01 T02440189  RH  071%=      5-min Rain = 0
KPD4 251438Z 18013KT 24/19 A30 RMK A01 T02440189  RH  071%=      5-min Rain = 0
KPD4 251439Z 18013KT 24/19 A30 RMK A01 T02430188  RH  071%=      5-min Rain = 0
KPD4 251440Z 17015KT 24/19 A30 RMK A01 T02440187  RH  070%=      5-min Rain = 0
KPD4 251441Z 19013KT 25/19 A30 RMK A01 T02450187  RH  070%=      5-min Rain = 0
KPD4 251442Z 19013KT 25/19 A30 RMK A01 T02450188  RH  071%=      5-min Rain = 0
KPD4 251443Z 19012KT 25/19 A30 RMK A01 T02460185  RH  069%=      5-min Rain = 0
KPD4 251444Z 18013KT 25/19 A30 RMK A01 T02450185  RH  069%=      5-min Rain = 0
KPD4 251445Z 18013KT 25/19 A30 RMK A01 T02450186  RH  069%=      5-min Rain = 0
KPD4 251446Z 18011KT 25/19 A30 RMK A01 T02460185  RH  069%=      5-min Rain = 0
KPD4 251447Z 18010KT 25/19 A30 RMK A01 T02460189  RH  070%=      5-min Rain = 0
KPD4 251448Z 17012KT 25/19 A30 RMK A01 T02480188  RH  069%=      5-min Rain = 0
KPD4 251449Z 17012KT 25/19 A30 RMK A01 T02490186  RH  068%=      5-min Rain = 0
KPD4 251450Z 17012KT 25/19 A30 RMK A01 T02490189  RH  069%=      5-min Rain = 0
KPD4 251451Z 17013KT 25/18 A30 RMK A01 T02510183  RH  066%=      5-min Rain = 0
KPD4 251452Z 17011KT 25/19 A30 RMK A01 T02500185  RH  067%=      5-min Rain = 0
KPD4 251453Z 17009KT 25/19 A30 RMK A01 T02490191  RH  070%=      5-min Rain = 0
KPD4 251454Z 17013KT 25/19 A30 RMK A01 T02520187  RH  067%=      5-min Rain = 0
KPD4 251455Z 17010KT 25/19 A30 RMK A01 T02520185  RH  066%=      5-min Rain = 0
KPD4 251456Z 16011KT 25/19 A30 RMK A01 T02520187  RH  067%=      5-min Rain = 0
KPD4 251457Z 16013KT 25/18 A30 RMK A01 T02540184  RH  065%=      5-min Rain = 0
KPD4 251458Z 17013KT 25/18 A30 RMK A01 T02540180  RH  064%=      5-min Rain = 0
KPD4 251459Z 17012KT 25/18 A30 RMK A01 T02540183  RH  065%=      5-min Rain = 0
KPD4 251500Z 17009KT 25/19 A30 RMK A01 T02540186  RH  066%=      5-min Rain = 0
KPD4 251501Z 19012KT 26/18 A3001 RMK A01 T02550181  RH  064%=      5-min Rain = 0
KPD4 251502Z 19013KT 26/18 A30 RMK A01 T02560178  RH  062%=      5-min Rain = 0
KPD4 251503Z 18012KT 25/17 A30 RMK A01 T02540174  RH  061%=      5-min Rain = 0
KPD4 251504Z 18013KT 25/18 A30 RMK A01 T02530176  RH  062%=      5-min Rain = 0
KPD4 251505Z 18012KT 25/18 A30 RMK A01 T02540175  RH  062%=      5-min Rain = 0
KPD4 251506Z 18008KT 25/18 A30 RMK A01 T02530179  RH  064%=      5-min Rain = 0
KPD4 251507Z 17012KT 26/18 A30 RMK A01 T02550184  RH  065%=      5-min Rain = 0
KPD4 251508Z 18013KT 26/18 A30 RMK A01 T02570182  RH  063%=      5-min Rain = 0
KPD4 251509Z 18012KT 26/18 A30 RMK A01 T02570182  RH  063%=      5-min Rain = 0
KPD4 251510Z 19014KT 26/18 A30 RMK A01 T02570181  RH  063%=      5-min Rain = 0
KPD4 251511Z 18013KT 26/18 A30 RMK A01 T02570179  RH  062%=      5-min Rain = 0
KPD4 251512Z 18011KT 26/18 A30 RMK A01 T02560180  RH  063%=      5-min Rain = 0
KPD4 251513Z 18012KT 26/18 A30 RMK A01 T02570177  RH  061%=      5-min Rain = 0
KPD4 251514Z 17010KT 26/18 A30 RMK A01 T02560178  RH  062%=      5-min Rain = 0
KPD4 251515Z 19011KT 26/18 A30 RMK A01 T02560183  RH  064%=      5-min Rain = 0
KPD4 251516Z 19011KT 26/18 A30 RMK A01 T02580183  RH  063%=      5-min Rain = 0
KPD4 251517Z 18011KT 26/18 A30 RMK A01 T02600183  RH  063%=      5-min Rain = 0
KPD4 251518Z 17012G17KT 26/18 A30 RMK A01 T02600181  RH  062%=      5-min Rain = 0
KPD4 251519Z 18016KT 26/18 A30 RMK A01 T02590177  RH  061%=      5-min Rain = 0
KPD4 251520Z 19015KT 26/17 A30 RMK A01 T02580174  RH  060%=      5-min Rain = 0
KPD4 251521Z 18013KT 26/18 A30 RMK A01 T02580175  RH  060%=      5-min Rain = 0
KPD4 251522Z 18011KT 26/18 A30 RMK A01 T02580176  RH  061%=      5-min Rain = 0
KPD4 251523Z 19009KT 26/18 A30 RMK A01 T02580176  RH  061%=      5-min Rain = 0
KPD4 251524Z 19009KT 26/18 A30 RMK A01 T02590180  RH  062%=      5-min Rain = 0
KPD4 251525Z 19008KT 26/18 A30 RMK A01 T02610177  RH  060%=      5-min Rain = 0
KPD4 251526Z 19010KT 26/18 A30 RMK A01 T02620177  RH  060%=      5-min Rain = 0
KPD4 251527Z 20013KT 26/18 A30 RMK A01 T02610178  RH  060%=      5-min Rain = 0
KPD4 251528Z 19011KT 26/18 A30 RMK A01 T02620182  RH  061%=      5-min Rain = 0
KPD4 251529Z 18011KT 26/18 A30 RMK A01 T02630183  RH  061%=      5-min Rain = 0
KPD4 251530Z 17010KT 27/18 A30 RMK A01 T02650182  RH  060%=      5-min Rain = 0
KPD4 251531Z 18010KT 27/19 A30 RMK A01 T02660185  RH  061%=      5-min Rain = 0
KPD4 251532Z 18009KT 27/19 A30 RMK A01 T02670185  RH  061%=      5-min Rain = 0
KPD4 251533Z 19015KT 27/19 A2999 RMK A01 T02680185  RH  060%=      5-min Rain = 0
KPD4 251534Z 19015KT 27/18 A30 RMK A01 T02670180  RH  059%=      5-min Rain = 0
KPD4 251535Z 19013KT 26/18 A30 RMK A01 T02640179  RH  060%=      5-min Rain = 0
KPD4 251536Z 19010KT 26/18 A30 RMK A01 T02630178  RH  059%=      5-min Rain = 0
KPD4 251537Z 19010KT 26/18 A2999 RMK A01 T02620177  RH  059%=      5-min Rain = 0
KPD4 251538Z 18009KT 26/18 A2999 RMK A01 T02610179  RH  061%=      5-min Rain = 0
KPD4 251539Z 18009KT 26/18 A2999 RMK A01 T02610176  RH  059%=      5-min Rain = 0
KPD4 251540Z 19008KT 26/18 A2999 RMK A01 T02610180  RH  061%=      5-min Rain = 0
KPD4 251541Z 19010KT 26/18 A2999 RMK A01 T02620182  RH  062%=      5-min Rain = 0
KPD4 251542Z 18013KT 26/18 A2999 RMK A01 T02640179  RH  060%=      5-min Rain = 0
KPD4 251543Z 18014KT 26/18 A2999 RMK A01 T02640179  RH  059%=      5-min Rain = 0
KPD4 251544Z 18014KT 26/18 A2999 RMK A01 T02640178  RH  059%=      5-min Rain = 0
KPD4 251545Z 18014KT 26/18 A2999 RMK A01 T02630178  RH  059%=      5-min Rain = 0
KPD4 251546Z 18013KT 26/18 A2999 RMK A01 T02630177  RH  059%=      5-min Rain = 0
KPD4 251547Z 18010KT 26/18 A2999 RMK A01 T02630177  RH  059%=      5-min Rain = 0
KPD4 251548Z 17010KT 26/18 A2999 RMK A01 T02630179  RH  060%=      5-min Rain = 0
KPD4 251549Z 17012KT 26/18 A2999 RMK A01 T02630180  RH  060%=      5-min Rain = 0
KPD4 251550Z 18012KT 26/18 A2999 RMK A01 T02640183  RH  061%=      5-min Rain = 0
KPD4 251551Z 18012KT 27/18 A2999 RMK A01 T02650180  RH  059%=      5-min Rain = 0
KPD4 251552Z 19011KT 27/18 A2999 RMK A01 T02650183  RH  061%=      5-min Rain = 0
KPD4 251553Z 19011KT 27/18 A2999 RMK A01 T02660184  RH  061%=      5-min Rain = 0
KPD4 251554Z 20014KT 27/19 A2999 RMK A01 T02670185  RH  061%=      5-min Rain = 0
KPD4 251555Z 19012KT 27/18 A2999 RMK A01 T02680183  RH  059%=      5-min Rain = 0
KPD4 251556Z 19014KT 27/18 A2999 RMK A01 T02680181  RH  059%=      5-min Rain = 0
KPD4 251557Z 19012KT 27/18 A2999 RMK A01 T02660179  RH  059%=      5-min Rain = 0
KPD4 251558Z 19011KT 27/18 A2999 RMK A01 T02660183  RH  060%=      5-min Rain = 0
KPD4 251559Z 19010KT 27/18 A2999 RMK A01 T02670182  RH  060%=      5-min Rain = 0
KPD4 251600Z 18010KT 27/19 A2999 RMK A01 T02680187  RH  061%=      5-min Rain = 0
KPD4 251601Z 20014KT 27/19 A2999 RMK A01 T02700185  RH  059%=      5-min Rain = 0
KPD4 251602Z 20009KT 27/18 A2999 RMK A01 T02700182  RH  059%=      5-min Rain = 0
KPD4 251603Z 19013KT 27/19 A2999 RMK A01 T02700186  RH  060%=      5-min Rain = 0
KPD4 251604Z 19012KT 27/18 A2999 RMK A01 T02700182  RH  059%=      5-min Rain = 0
KPD4 251605Z 18013KT 27/19 A2999 RMK A01 T02700187  RH  060%=      5-min Rain = 0
KPD4 251606Z 19014KT 27/18 A2999 RMK A01 T02710182  RH  058%=      5-min Rain = 0
KPD4 251607Z 20011KT 27/18 A2999 RMK A01 T02700182  RH  058%=      5-min Rain = 0
KPD4 251608Z 20013KT 27/18 A2999 RMK A01 T02700183  RH  059%=      5-min Rain = 0
KPD4 251609Z 20011KT 27/18 A2999 RMK A01 T02700181  RH  058%=      5-min Rain = 0
KPD4 251610Z 18011KT 27/19 A2999 RMK A01 T02710187  RH  060%=      5-min Rain = 0
KPD4 251611Z 19014KT 27/19 A2999 RMK A01 T02730186  RH  059%=      5-min Rain = 0
KPD4 251612Z 19012KT 27/18 A2999 RMK A01 T02730181  RH  057%=      5-min Rain = 0
KPD4 251613Z 19011KT 27/19 A2999 RMK A01 T02730185  RH  059%=      5-min Rain = 0
KPD4 251614Z 21013KT 27/19 A2999 RMK A01 T02730187  RH  059%=      5-min Rain = 0
KPD4 251615Z 20013KT 27/18 A2999 RMK A01 T02740183  RH  058%=      5-min Rain = 0
KPD4 251616Z 20013KT 27/18 A2999 RMK A01 T02730184  RH  058%=      5-min Rain = 0
KPD4 251617Z 20014KT 27/18 A2999 RMK A01 T02730183  RH  058%=      5-min Rain = 0
KPD4 251618Z 20011KT 27/18 A2999 RMK A01 T02730180  RH  057%=      5-min Rain = 0
KPD4 251619Z 21009KT 27/18 A2999 RMK A01 T02710181  RH  058%=      5-min Rain = 0
KPD4 251620Z 21009KT 27/19 A2999 RMK A01 T02710185  RH  059%=      5-min Rain = 0
KPD4 251621Z 20012KT 27/18 A2999 RMK A01 T02720184  RH  059%=      5-min Rain = 0
KPD4 251622Z 20010KT 27/18 A2999 RMK A01 T02720183  RH  058%=      5-min Rain = 0
KPD4 251623Z 19014KT 27/19 A2999 RMK A01 T02730186  RH  059%=      5-min Rain = 0
KPD4 251624Z 20011KT 27/19 A2999 RMK A01 T02740185  RH  058%=      5-min Rain = 0
KPD4 251625Z 20013KT 28/19 A2999 RMK A01 T02750186  RH  058%=      5-min Rain = 0
KPD4 251626Z 20015KT 28/18 A2999 RMK A01 T02750184  RH  058%=      5-min Rain = 0
KPD4 251627Z 20014KT 27/19 A2999 RMK A01 T02740185  RH  058%=      5-min Rain = 0
KPD4 251628Z 20010KT 27/18 A2999 RMK A01 T02740184  RH  058%=      5-min Rain = 0
KPD4 251629Z 20009KT 28/19 A2999 RMK A01 T02750190  RH  060%=      5-min Rain = 0
KPD4 251630Z 19013KT 28/19 A2999 RMK A01 T02770186  RH  057%=      5-min Rain = 0
KPD4 251631Z 20013KT 28/19 A2999 RMK A01 T02770185  RH  057%=      5-min Rain = 0
KPD4 251632Z 18012KT 28/19 A2999 RMK A01 T02760185  RH  058%=      5-min Rain = 0
KPD4 251633Z 19015KT 28/19 A2999 RMK A01 T02750185  RH  058%=      5-min Rain = 0
KPD4 251634Z 21012KT 28/18 A2999 RMK A01 T02760184  RH  057%=      5-min Rain = 0
KPD4 251635Z 19011KT 28/18 A2999 RMK A01 T02750183  RH  057%=      5-min Rain = 0
KPD4 251636Z 20009KT 28/19 A2999 RMK A01 T02750185  RH  058%=      5-min Rain = 0
KPD4 251637Z 20010G15KT 28/19 A2999 RMK A01 T02750187  RH  058%=      5-min Rain = 0
KPD4 251638Z 20014KT 28/19 A2999 RMK A01 T02760185  RH  057%=      5-min Rain = 0
KPD4 251639Z 19011KT 28/18 A2999 RMK A01 T02760184  RH  057%=      5-min Rain = 0
KPD4 251640Z 21010KT 28/19 A2999 RMK A01 T02760190  RH  059%=      5-min Rain = 0
KPD4 251641Z 20012KT 28/19 A30 RMK A01 T02790193  RH  060%=      5-min Rain = 0
KPD4 251642Z 19012KT 28/19 A30 RMK A01 T02810186  RH  056%=      5-min Rain = 0
KPD4 251643Z 18012KT 28/19 A30 RMK A01 T02800186  RH  057%=      5-min Rain = 0
KPD4 251644Z 19015KT 28/19 A2999 RMK A01 T02790187  RH  057%=      5-min Rain = 0
KPD4 251645Z 20013KT 28/19 A30 RMK A01 T02790185  RH  057%=      5-min Rain = 0
KPD4 251646Z 20012KT 28/18 A30 RMK A01 T02780183  RH  056%=      5-min Rain = 0
KPD4 251647Z 20009KT 28/18 A30 RMK A01 T02760183  RH  057%=      5-min Rain = 0
KPD4 251648Z 19010KT 28/19 A30 RMK A01 T02760186  RH  058%=      5-min Rain = 0
KPD4 251649Z 19009KT 28/19 A30 RMK A01 T02780186  RH  057%=      5-min Rain = 0
KPD4 251650Z 18010KT 28/18 A30 RMK A01 T02780184  RH  057%=      5-min Rain = 0
KPD4 251651Z 18012KT 28/19 A30 RMK A01 T02780186  RH  057%=      5-min Rain = 0
KPD4 251652Z 19011KT 28/19 A30 RMK A01 T02800188  RH  058%=      5-min Rain = 0
KPD4 251653Z 21009KT 28/19 A30 RMK A01 T02810189  RH  057%=      5-min Rain = 0
KPD4 251654Z 19012KT 28/19 A30 RMK A01 T02820190  RH  058%=      5-min Rain = 0
KPD4 251655Z 20014KT 28/18 A30 RMK A01 T02820184  RH  055%=      5-min Rain = 0
KPD4 251656Z 20012KT 28/19 A30 RMK A01 T02800185  RH  056%=      5-min Rain = 0
KPD4 251657Z 20009KT 28/19 A30 RMK A01 T02800188  RH  057%=      5-min Rain = 0
KPD4 251658Z 21009KT 28/19 A30 RMK A01 T02810190  RH  058%=      5-min Rain = 0
KPD4 251659Z 20008KT 28/19 A30 RMK A01 T02830189  RH  057%=      5-min Rain = 0
KPD4 251700Z 18009KT 28/19 A30 RMK A01 T02840188  RH  056%=      5-min Rain = 0
KPD4 251701Z 18010KT 28/18 A30 RMK A01 T02830184  RH  055%=      5-min Rain = 0
KPD4 251702Z 20008KT 28/19 A30 RMK A01 T02820189  RH  057%=      5-min Rain = 0
KPD4 251703Z 18010KT 28/19 A2999 RMK A01 T02830191  RH  057%=      5-min Rain = 0
KPD4 251704Z 19011KT 29/20 A2999 RMK A01 T02860195  RH  058%=      5-min Rain = 0
KPD4 251705Z 18011KT 29/19 A2999 RMK A01 T02880187  RH  055%=      5-min Rain = 0
KPD4 251706Z 19013KT 29/19 A2999 RMK A01 T02870190  RH  056%=      5-min Rain = 0
KPD4 251707Z 19012KT 29/19 A2999 RMK A01 T02860189  RH  056%=      5-min Rain = 0
KPD4 251708Z 20011KT 29/18 A2999 RMK A01 T02850181  RH  053%=      5-min Rain = 0
KPD4 251709Z 22009KT 28/19 A2999 RMK A01 T02820186  RH  056%=      5-min Rain = 0
KPD4 251710Z 21009KT 28/19 A2999 RMK A01 T02820185  RH  056%=      5-min Rain = 0
KPD4 251711Z 20010G15KT 28/19 A2999 RMK A01 T02830189  RH  057%=      5-min Rain = 0
KPD4 251712Z 20010KT 29/18 A2999 RMK A01 T02850184  RH  054%=      5-min Rain = 0
KPD4 251713Z 18010KT 29/18 A2999 RMK A01 T02850183  RH  054%=      5-min Rain = 0
KPD4 251714Z 17009KT 28/19 A2999 RMK A01 T02840187  RH  056%=      5-min Rain = 0
KPD4 251715Z 17012KT 29/19 A2999 RMK A01 T02850190  RH  056%=      5-min Rain = 0
KPD4 251716Z 18010KT 29/18 A2999 RMK A01 T02870183  RH  054%=      5-min Rain = 0
KPD4 251717Z 18011KT 29/19 A2999 RMK A01 T02850186  RH  055%=      5-min Rain = 0
KPD4 251718Z 18009KT 29/18 A2999 RMK A01 T02850184  RH  054%=      5-min Rain = 0
KPD4 251719Z 17011KT 29/19 A2999 RMK A01 T02850190  RH  056%=      5-min Rain = 0
KPD4 251720Z 16009KT 29/19 A2999 RMK A01 T02870189  RH  055%=      5-min Rain = 0
KPD4 251721Z 17008KT 29/19 A2999 RMK A01 T02890190  RH  055%=      5-min Rain = 0
KPD4 251722Z 18011KT 29/19 A2999 RMK A01 T02890193  RH  056%=      5-min Rain = 0
KPD4 251723Z 18010KT 29/19 A2999 RMK A01 T02910190  RH  054%=      5-min Rain = 0
KPD4 251724Z 17009KT 29/19 A2999 RMK A01 T02910190  RH  055%=      5-min Rain = 0
KPD4 251725Z 18009KT 29/19 A2999 RMK A01 T02900188  RH  054%=      5-min Rain = 0
KPD4 251726Z 19009KT 29/19 A2999 RMK A01 T02890192  RH  056%=      5-min Rain = 0
KPD4 251727Z 20009KT 29/19 A2999 RMK A01 T02910192  RH  055%=      5-min Rain = 0
KPD4 251728Z 21008KT 29/19 A2999 RMK A01 T02920185  RH  052%=      5-min Rain = 0
KPD4 251729Z 17008KT 29/19 A2999 RMK A01 T02910192  RH  055%=      5-min Rain = 0
KPD4 251730Z 16011KT 29/19 A2999 RMK A01 T02920188  RH  054%=      5-min Rain = 0
KPD4 251731Z 17013KT 29/19 A2999 RMK A01 T02920188  RH  054%=      5-min Rain = 0
KPD4 251732Z 17013KT 29/19 A2999 RMK A01 T02910188  RH  054%=      5-min Rain = 0
KPD4 251733Z 16015KT 29/19 A2999 RMK A01 T02910189  RH  054%=      5-min Rain = 0
KPD4 251734Z 18013KT 29/19 A2999 RMK A01 T02910186  RH  053%=      5-min Rain = 0
KPD4 251735Z 17009KT 29/19 A2999 RMK A01 T02910185  RH  053%=      5-min Rain = 0
KPD4 251736Z 16010KT 29/19 A2999 RMK A01 T02900185  RH  053%=      5-min Rain = 0
KPD4 251737Z 16012KT 29/19 A2999 RMK A01 T02900189  RH  055%=      5-min Rain = 0
KPD4 251738Z 16011KT 29/19 A2999 RMK A01 T02910187  RH  053%=      5-min Rain = 0
KPD4 251739Z 15011KT 29/19 A2999 RMK A01 T02920189  RH  054%=      5-min Rain = 0
KPD4 251740Z 15011KT 29/19 A2999 RMK A01 T02930189  RH  054%=      5-min Rain = 0
KPD4 251741Z 16011KT 29/19 A2999 RMK A01 T02930185  RH  052%=      5-min Rain = 0
KPD4 251742Z 18012KT 29/19 A2999 RMK A01 T02920189  RH  054%=      5-min Rain = 0
KPD4 251743Z 16010KT 29/19 A2999 RMK A01 T02920187  RH  053%=      5-min Rain = 0
KPD4 251744Z 16010KT 29/19 A2999 RMK A01 T02920185  RH  052%=      5-min Rain = 0
KPD4 251745Z 17010KT 29/19 A2999 RMK A01 T02920193  RH  055%=      5-min Rain = 0
KPD4 251746Z 17010KT 29/19 A2999 RMK A01 T02930190  RH  054%=      5-min Rain = 0
KPD4 251747Z 16008KT 29/19 A2999 RMK A01 T02940188  RH  053%=      5-min Rain = 0
KPD4 251748Z 16008KT 29/19 A2999 RMK A01 T02940192  RH  054%=      5-min Rain = 0
KPD4 251749Z 15007G12KT 30/18 A2999 RMK A01 T02950183  RH  051%=      5-min Rain = 0
KPD4 251750Z 17011KT 29/19 A2999 RMK A01 T02940188  RH  053%=      5-min Rain = 0
KPD4 251751Z 17009KT 29/19 A2999 RMK A01 T02930191  RH  054%=      5-min Rain = 0
KPD4 251752Z 15010KT 29/19 A2999 RMK A01 T02940189  RH  053%=      5-min Rain = 0
KPD4 251753Z 15010KT 30/19 A2999 RMK A01 T02950187  RH  052%=      5-min Rain = 0
KPD4 251754Z 15010KT 30/19 A2999 RMK A01 T02950193  RH  054%=      5-min Rain = 0
KPD4 251755Z 17011KT 30/19 A2999 RMK A01 T02960191  RH  053%=      5-min Rain = 0
KPD4 251756Z 16011KT 30/19 A2999 RMK A01 T02970193  RH  054%=      5-min Rain = 0
KPD4 251757Z 16009KT 30/19 A2999 RMK A01 T02980186  RH  051%=      5-min Rain = 0
KPD4 251758Z 16008KT 30/19 A2999 RMK A01 T02970194  RH  054%=      5-min Rain = 0
KPD4 251759Z 15009KT 30/19 A2999 RMK A01 T02980190  RH  052%=      5-min Rain = 0
KPD4 251800Z 15012KT 30/19 A2999 RMK A01 T02980189  RH  052%=      5-min Rain = 0
KPD4 251801Z 16011KT 30/19 A2999 RMK A01 T02970192  RH  053%=      5-min Rain = 0
KPD4 251802Z 16008KT 30/20 A2999 RMK A01 T02980195  RH  054%=      5-min Rain = 0
KPD4 251803Z 17011KT 30/20 A2999 RMK A01 T03010200  RH  055%=      5-min Rain = 0
KPD4 251804Z 16011KT 30/19 A2999 RMK A01 T03030193  RH  052%=      5-min Rain = 0
KPD4 251805Z 18012KT 30/20 A2999 RMK A01 T03030195  RH  052%=      5-min Rain = 0
KPD4 251806Z 18010KT 30/19 A2999 RMK A01 T03020190  RH  051%=      5-min Rain = 0
KPD4 251807Z 17010KT 30/19 A2999 RMK A01 T03010193  RH  053%=      5-min Rain = 0
KPD4 251808Z 15013KT 30/19 A2999 RMK A01 T03010191  RH  052%=      5-min Rain = 0
KPD4 251809Z 18012G19KT 30/20 A2999 RMK A01 T03010195  RH  053%=      5-min Rain = 0
KPD4 251810Z 18010KT 30/19 A2999 RMK A01 T03030193  RH  052%=      5-min Rain = 0
KPD4 251811Z 18012KT 30/19 A2999 RMK A01 T03030191  RH  051%=      5-min Rain = 0
KPD4 251812Z 17010KT 30/19 A2999 RMK A01 T03020188  RH  051%=      5-min Rain = 0
KPD4 251813Z 17011KT 30/19 A2999 RMK A01 T03010190  RH  051%=      5-min Rain = 0
KPD4 251814Z 17010KT 30/19 A2999 RMK A01 T03010188  RH  051%=      5-min Rain = 0
KPD4 251815Z 17010KT 30/19 A2999 RMK A01 T03010190  RH  051%=      5-min Rain = 0
KPD4 251816Z 17010KT 30/19 A2999 RMK A01 T03020192  RH  052%=      5-min Rain = 0
KPD4 251817Z 16012KT 30/19 A2999 RMK A01 T03030189  RH  050%=      5-min Rain = 0
KPD4 251818Z 16011KT 30/19 A2999 RMK A01 T03030188  RH  050%=      5-min Rain = 0
KPD4 251819Z 16008KT 30/19 A2999 RMK A01 T03020192  RH  052%=      5-min Rain = 0
KPD4 251820Z 16010KT 30/19 A2998 RMK A01 T03030194  RH  052%=      5-min Rain = 0
KPD4 251821Z 16011KT 30/19 A2998 RMK A01 T03040187  RH  050%=      5-min Rain = 0
KPD4 251822Z 15010KT 30/19 A2998 RMK A01 T03040189  RH  050%=      5-min Rain = 0
KPD4 251823Z 16010KT 30/19 A2998 RMK A01 T03040192  RH  051%=      5-min Rain = 0
KPD4 251824Z 15011KT 30/19 A2998 RMK A01 T03030192  RH  051%=      5-min Rain = 0
KPD4 251825Z 15012KT 30/19 A2998 RMK A01 T03040193  RH  051%=      5-min Rain = 0
KPD4 251826Z 15012KT 31/19 A2998 RMK A01 T03050192  RH  051%=      5-min Rain = 0
KPD4 251827Z 17011KT 31/20 A2998 RMK A01 T03060196  RH  052%=      5-min Rain = 0
KPD4 251828Z 18008KT 31/19 A2998 RMK A01 T03070191  RH  050%=      5-min Rain = 0
KPD4 251829Z 16009KT 31/19 A2998 RMK A01 T03080193  RH  050%=      5-min Rain = 0
KPD4 251830Z 15012KT 31/20 A2998 RMK A01 T03080195  RH  051%=      5-min Rain = 0
KPD4 251831Z 16011KT 31/19 A2998 RMK A01 T03080190  RH  050%=      5-min Rain = 0
KPD4 251832Z 17011KT 31/19 A2998 RMK A01 T03070191  RH  050%=      5-min Rain = 0
KPD4 251833Z 16010KT 31/19 A2998 RMK A01 T03050186  RH  049%=      5-min Rain = 0
KPD4 251834Z 15010KT 31/19 A2998 RMK A01 T03050190  RH  050%=      5-min Rain = 0
KPD4 251835Z 15012KT 31/20 A2998 RMK A01 T03050195  RH  052%=      5-min Rain = 0
KPD4 251836Z 15011KT 31/19 A2998 RMK A01 T03070190  RH  050%=      5-min Rain = 0
KPD4 251837Z 15011KT 31/19 A2998 RMK A01 T03070192  RH  050%=      5-min Rain = 0
KPD4 251838Z 14012KT 31/19 A2998 RMK A01 T03070190  RH  050%=      5-min Rain = 0
KPD4 251839Z 15012KT 31/19 A2998 RMK A01 T03070190  RH  050%=      5-min Rain = 0
KPD4 251840Z 14011KT 31/20 A2998 RMK A01 T03070195  RH  051%=      5-min Rain = 0
KPD4 251841Z 15011KT 31/19 A2998 RMK A01 T03070188  RH  049%=      5-min Rain = 0
KPD4 251842Z 15010KT 31/19 A2998 RMK A01 T03060185  RH  049%=      5-min Rain = 0
KPD4 251843Z 14009KT 31/19 A2998 RMK A01 T03050194  RH  052%=      5-min Rain = 0
KPD4 251844Z 14009KT 31/19 A2998 RMK A01 T03060189  RH  050%=      5-min Rain = 0
KPD4 251845Z 14010KT 31/20 A2998 RMK A01 T03070199  RH  053%=      5-min Rain = 0
KPD4 251846Z 16009KT 31/19 A2998 RMK A01 T03080189  RH  049%=      5-min Rain = 0
KPD4 251847Z 15011KT 31/19 A2998 RMK A01 T03080190  RH  050%=      5-min Rain = 0
KPD4 251848Z 17013KT 31/19 A2998 RMK A01 T03070192  RH  050%=      5-min Rain = 0
KPD4 251849Z 17014KT 31/19 A2998 RMK A01 T03090187  RH  048%=      5-min Rain = 0
KPD4 251850Z 18010KT 31/19 A2998 RMK A01 T03080187  RH  048%=      5-min Rain = 0
KPD4 251851Z 17009KT 31/19 A2998 RMK A01 T03080194  RH  051%=      5-min Rain = 0
KPD4 251852Z 16009KT 31/19 A2998 RMK A01 T03090188  RH  048%=      5-min Rain = 0
KPD4 251853Z 16009KT 31/19 A2998 RMK A01 T03090193  RH  050%=      5-min Rain = 0
KPD4 251854Z 16012KT 31/19 A2998 RMK A01 T03090194  RH  050%=      5-min Rain = 0
KPD4 251855Z 15013KT 31/19 A2998 RMK A01 T03090192  RH  050%=      5-min Rain = 0
KPD4 251856Z 15012KT 31/19 A2998 RMK A01 T03090192  RH  050%=      5-min Rain = 0
KPD4 251857Z 15010KT 31/19 A2998 RMK A01 T03100191  RH  049%=      5-min Rain = 0
KPD4 251858Z 15009KT 31/19 A2998 RMK A01 T03090185  RH  047%=      5-min Rain = 0
KPD4 251859Z 15008KT 31/18 A2998 RMK A01 T03080184  RH  048%=      5-min Rain = 0
KPD4 251900Z 14009KT 31/19 A2998 RMK A01 T03060187  RH  049%=      5-min Rain = 0
KPD4 251901Z 15013KT 31/19 A2998 RMK A01 T03060191  RH  050%=      5-min Rain = 0
KPD4 251902Z 15014KT 31/19 A2998 RMK A01 T03080190  RH  049%=      5-min Rain = 0
KPD4 251903Z 15010KT 31/19 A2998 RMK A01 T03090190  RH  049%=      5-min Rain = 0
KPD4 251904Z 15011KT 31/19 A2998 RMK A01 T03100193  RH  050%=      5-min Rain = 0
KPD4 251905Z 15010KT 31/20 A2998 RMK A01 T03110198  RH  051%=      5-min Rain = 0
KPD4 251906Z 15013KT 31/19 A2998 RMK A01 T03120187  RH  047%=      5-min Rain = 0
KPD4 251907Z 14013KT 31/19 A2998 RMK A01 T03100186  RH  048%=      5-min Rain = 0
KPD4 251908Z 14011KT 31/19 A2998 RMK A01 T03100187  RH  048%=      5-min Rain = 0
KPD4 251909Z 13011KT 31/19 A2998 RMK A01 T03090186  RH  048%=      5-min Rain = 0
KPD4 251910Z 14011KT 31/19 A2998 RMK A01 T03090194  RH  050%=      5-min Rain = 0
KPD4 251911Z 14011KT 31/20 A2997 RMK A01 T03110200  RH  052%=      5-min Rain = 0
KPD4 251912Z 15013KT 31/19 A2997 RMK A01 T03130192  RH  049%=      5-min Rain = 0
KPD4 251913Z 15010KT 31/20 A2997 RMK A01 T03130196  RH  050%=      5-min Rain = 0
KPD4 251914Z 16010KT 31/20 A2997 RMK A01 T03140196  RH  049%=      5-min Rain = 0
KPD4 251915Z 16013KT 32/20 A2997 RMK A01 T03160195  RH  049%=      5-min Rain = 0
KPD4 251916Z 15013KT 32/19 A2997 RMK A01 T03150190  RH  047%=      5-min Rain = 0
KPD4 251917Z 15012KT 31/20 A2997 RMK A01 T03140198  RH  050%=      5-min Rain = 0
KPD4 251918Z 15012KT 31/19 A2997 RMK A01 T03140192  RH  048%=      5-min Rain = 0
KPD4 251919Z 14010KT 31/19 A2997 RMK A01 T03140191  RH  048%=      5-min Rain = 0
KPD4 251920Z 16013KT 31/19 A2997 RMK A01 T03130187  RH  047%=      5-min Rain = 0
KPD4 251921Z 14012KT 31/19 A2997 RMK A01 T03120194  RH  050%=      5-min Rain = 0
KPD4 251922Z 15014KT 31/19 A2997 RMK A01 T03120188  RH  048%=      5-min Rain = 0
KPD4 251923Z 14012KT 31/19 A2997 RMK A01 T03120193  RH  049%=      5-min Rain = 0
KPD4 251924Z 14011KT 31/19 A2997 RMK A01 T03120186  RH  047%=      5-min Rain = 0
KPD4 251925Z 13011KT 31/20 A2997 RMK A01 T03120198  RH  051%=      5-min Rain = 0
KPD4 251926Z 14015KT 31/20 A2997 RMK A01 T03140195  RH  049%=      5-min Rain = 0
KPD4 251927Z 14013KT 32/19 A2997 RMK A01 T03150192  RH  048%=      5-min Rain = 0
KPD4 251928Z 13013KT 32/19 A2997 RMK A01 T03150190  RH  048%=      5-min Rain = 0
KPD4 251929Z 15011KT 32/20 A2997 RMK A01 T03150195  RH  049%=      5-min Rain = 0
KPD4 251930Z 16011KT 32/19 A2997 RMK A01 T03150194  RH  049%=      5-min Rain = 0
KPD4 251931Z 16013KT 32/19 A2996 RMK A01 T03170194  RH  048%=      5-min Rain = 0
KPD4 251932Z 16012KT 32/19 A2997 RMK A01 T03180190  RH  047%=      5-min Rain = 0
KPD4 251933Z 16011KT 32/19 A2996 RMK A01 T03160186  RH  046%=      5-min Rain = 0
KPD4 251934Z 15012KT 31/19 A2997 RMK A01 T03140191  RH  048%=      5-min Rain = 0
KPD4 251935Z 16013KT 32/19 A2996 RMK A01 T03150193  RH  048%=      5-min Rain = 0
KPD4 251936Z 15015KT 32/20 A2996 RMK A01 T03170196  RH  049%=      5-min Rain = 0
KPD4 251937Z 15012KT 32/19 A2996 RMK A01 T03180193  RH  048%=      5-min Rain = 0
KPD4 251938Z 15013KT 32/19 A2996 RMK A01 T03170190  RH  047%=      5-min Rain = 0
KPD4 251939Z 14010KT 32/19 A2996 RMK A01 T03160192  RH  048%=      5-min Rain = 0
KPD4 251940Z 13011KT 32/19 A2996 RMK A01 T03160194  RH  048%=      5-min Rain = 0
KPD4 251941Z 13012KT 32/19 A2996 RMK A01 T03160192  RH  048%=      5-min Rain = 0
KPD4 251942Z 15010KT 32/20 A2996 RMK A01 T03160195  RH  049%=      5-min Rain = 0
KPD4 251943Z 14010KT 32/20 A2996 RMK A01 T03170197  RH  049%=      5-min Rain = 0
KPD4 251944Z 14012G18KT 32/20 A2996 RMK A01 T03190199  RH  049%=      5-min Rain = 0
KPD4 251945Z 15012KT 32/19 A2996 RMK A01 T03200194  RH  047%=      5-min Rain = 0
KPD4 251946Z 13013KT 32/19 A2996 RMK A01 T03190193  RH  047%=      5-min Rain = 0
KPD4 251947Z 14015KT 32/19 A2996 RMK A01 T03180189  RH  046%=      5-min Rain = 0
KPD4 251948Z 15015KT 32/19 A2996 RMK A01 T03180193  RH  048%=      5-min Rain = 0
KPD4 251949Z 16015KT 32/19 A2996 RMK A01 T03170189  RH  047%=      5-min Rain = 0
KPD4 251950Z 15011KT 32/19 A2996 RMK A01 T03170187  RH  046%=      5-min Rain = 0
KPD4 251951Z 15012KT 32/20 A2996 RMK A01 T03170196  RH  049%=      5-min Rain = 0
KPD4 251952Z 17013KT 32/19 A2996 RMK A01 T03180193  RH  047%=      5-min Rain = 0
KPD4 251953Z 17014KT 32/19 A2996 RMK A01 T03200193  RH  047%=      5-min Rain = 0
KPD4 251954Z 17013KT 32/19 A2996 RMK A01 T03210188  RH  045%=      5-min Rain = 0
KPD4 251955Z 18015KT 32/19 A2996 RMK A01 T03210187  RH  045%=      5-min Rain = 0
KPD4 251956Z 18014KT 32/18 A2996 RMK A01 T03200182  RH  044%=      5-min Rain = 0
KPD4 251957Z 18013KT 32/18 A2996 RMK A01 T03180184  RH  045%=      5-min Rain = 0
KPD4 251958Z 17015KT 32/19 A2996 RMK A01 T03180188  RH  046%=      5-min Rain = 0
KPD4 251959Z 16013KT 32/19 A2996 RMK A01 T03180189  RH  046%=      5-min Rain = 0
KPD4 252000Z 17014KT 32/18 A2996 RMK A01 T03190184  RH  045%=      5-min Rain = 0
KPD4 252001Z 18012KT 32/19 A2996 RMK A01 T03190192  RH  047%=      5-min Rain = 0
KPD4 252002Z 17011KT 32/19 A2996 RMK A01 T03200189  RH  046%=      5-min Rain = 0
KPD4 252003Z 17013KT 32/19 A2996 RMK A01 T03210185  RH  045%=      5-min Rain = 0
KPD4 252004Z 17010KT 32/19 A2996 RMK A01 T03200192  RH  047%=      5-min Rain = 0
KPD4 252005Z 18011KT 32/19 A2996 RMK A01 T03210193  RH  047%=      5-min Rain = 0
KPD4 252006Z 16011KT 32/19 A2996 RMK A01 T03220190  RH  045%=      5-min Rain = 0
KPD4 252007Z 16012KT 32/19 A2996 RMK A01 T03220190  RH  046%=      5-min Rain = 0
KPD4 252008Z 16012KT 32/19 A2996 RMK A01 T03210187  RH  045%=      5-min Rain = 0
KPD4 252009Z 16012KT 32/19 A2996 RMK A01 T03190187  RH  045%=      5-min Rain = 0
KPD4 252010Z 15011KT 32/19 A2996 RMK A01 T03180192  RH  047%=      5-min Rain = 0
KPD4 252011Z 15012KT 32/20 A2996 RMK A01 T03190197  RH  048%=      5-min Rain = 0
KPD4 252012Z 16011KT 32/19 A2996 RMK A01 T03190186  RH  045%=      5-min Rain = 0
KPD4 252013Z 16010KT 32/19 A2996 RMK A01 T03170194  RH  048%=      5-min Rain = 0
KPD4 252014Z 15013KT 32/19 A2996 RMK A01 T03160188  RH  046%=      5-min Rain = 0
KPD4 252015Z 15012KT 31/19 A2996 RMK A01 T03140187  RH  047%=      5-min Rain = 0
KPD4 252016Z 15011KT 31/19 A2996 RMK A01 T03140190  RH  048%=      5-min Rain = 0
KPD4 252017Z 16010KT 32/19 A2996 RMK A01 T03150194  RH  049%=      5-min Rain = 0
KPD4 252018Z 16010KT 32/19 A2996 RMK A01 T03170194  RH  048%=      5-min Rain = 0
KPD4 252019Z 16011KT 32/19 A2995 RMK A01 T03170188  RH  046%=      5-min Rain = 0
KPD4 252020Z 16011KT 32/19 A2995 RMK A01 T03170191  RH  047%=      5-min Rain = 0
KPD4 252021Z 16011KT 32/19 A2996 RMK A01 T03160194  RH  048%=      5-min Rain = 0
KPD4 252022Z 15010KT 32/20 A2996 RMK A01 T03180203  RH  051%=      5-min Rain = 0
KPD4 252023Z 15009KT 32/20 A2996 RMK A01 T03200200  RH  049%=      5-min Rain = 0
KPD4 252024Z 15010KT 32/20 A2995 RMK A01 T03190199  RH  049%=      5-min Rain = 0
KPD4 252025Z 15010KT 32/19 A2995 RMK A01 T03190194  RH  048%=      5-min Rain = 0
KPD4 252026Z 15010KT 32/19 A2995 RMK A01 T03180194  RH  048%=      5-min Rain = 0
KPD4 252027Z 15010KT 32/19 A2995 RMK A01 T03180193  RH  047%=      5-min Rain = 0
KPD4 252028Z 15009KT 32/19 A2995 RMK A01 T03190188  RH  046%=      5-min Rain = 0
KPD4 252029Z 14009KT 32/20 A2995 RMK A01 T03190195  RH  048%=      5-min Rain = 0
KPD4 252030Z 14010KT 32/19 A2995 RMK A01 T03190187  RH  046%=      5-min Rain = 0
KPD4 252031Z 15009KT 32/19 A2995 RMK A01 T03180188  RH  046%=      5-min Rain = 0
KPD4 252032Z 15009KT 32/19 A2995 RMK A01 T03190190  RH  047%=      5-min Rain = 0
KPD4 252033Z 15010KT 32/19 A2995 RMK A01 T03200192  RH  047%=      5-min Rain = 0
KPD4 252034Z 16009KT 32/19 A2995 RMK A01 T03210190  RH  046%=      5-min Rain = 0
KPD4 252035Z 17010KT 32/19 A2995 RMK A01 T03220191  RH  046%=      5-min Rain = 0
KPD4 252036Z 17012KT 32/19 A2995 RMK A01 T03220185  RH  044%=      5-min Rain = 0
KPD4 252037Z 17011KT 32/18 A2995 RMK A01 T03170179  RH  044%=      5-min Rain = 0
KPD4 252038Z 17011KT 31/18 A2995 RMK A01 T03120177  RH  045%=      5-min Rain = 0
KPD4 252039Z 15010KT 31/18 A2995 RMK A01 T03080182  RH  047%=      5-min Rain = 0
KPD4 252040Z 16010KT 31/18 A2995 RMK A01 T03060181  RH  047%=      5-min Rain = 0
KPD4 252041Z 15010KT 30/18 A2995 RMK A01 T03040177  RH  047%=      5-min Rain = 0
KPD4 252042Z 15009KT 30/18 A2995 RMK A01 T03030180  RH  048%=      5-min Rain = 0
KPD4 252043Z 15009KT 30/19 A2995 RMK A01 T03040185  RH  049%=      5-min Rain = 0
KPD4 252044Z 15008KT 31/19 A2995 RMK A01 T03070186  RH  048%=      5-min Rain = 0
KPD4 252045Z 15008KT 31/19 A2995 RMK A01 T03120187  RH  047%=      5-min Rain = 0
KPD4 252046Z 15009KT 32/19 A2995 RMK A01 T03150187  RH  047%=      5-min Rain = 0
KPD4 252047Z 15009KT 32/19 A2995 RMK A01 T03190192  RH  047%=      5-min Rain = 0
KPD4 252048Z 16010KT 32/19 A2995 RMK A01 T03210189  RH  045%=      5-min Rain = 0
KPD4 252049Z 17009KT 32/18 A2995 RMK A01 T03220183  RH  044%=      5-min Rain = 0
KPD4 252050Z 16009KT 32/19 A2995 RMK A01 T03220185  RH  044%=      5-min Rain = 0
KPD4 252051Z 16010KT 32/18 A2995 RMK A01 T03210183  RH  044%=      5-min Rain = 0
KPD4 252052Z 16009KT 32/19 A2995 RMK A01 T03210189  RH  045%=      5-min Rain = 0
KPD4 252053Z 16007KT 32/20 A2995 RMK A01 T03230198  RH  048%=      5-min Rain = 0
KPD4 252054Z 16007KT 33/20 A2994 RMK A01 T03270203  RH  048%=      5-min Rain = 0
KPD4 252055Z 15008KT 33/20 A2994 RMK A01 T03290198  RH  046%=      5-min Rain = 0
KPD4 252056Z 15010KT 33/19 A2994 RMK A01 T03280191  RH  044%=      5-min Rain = 0
KPD4 252057Z 15011KT 33/19 A2994 RMK A01 T03270185  RH  043%=      5-min Rain = 0
KPD4 252058Z 16009KT 33/18 A2994 RMK A01 T03250183  RH  043%=      5-min Rain = 0
KPD4 252059Z 16009KT 32/18 A2994 RMK A01 T03240184  RH  043%=      5-min Rain = 0
KPD4 252100Z 16009KT 33/20 A2994 RMK A01 T03260195  RH  046%=      5-min Rain = 0
KPD4 252101Z 17010KT 33/19 A2994 RMK A01 T03270186  RH  043%=      5-min Rain = 0
KPD4 252102Z 16012KT 33/19 A2994 RMK A01 T03270185  RH  043%=      5-min Rain = 0
KPD4 252103Z 17011KT 33/18 A2994 RMK A01 T03280180  RH  041%=      5-min Rain = 0
KPD4 252104Z 18011KT 33/17 A2994 RMK A01 T03260171  RH  040%=      5-min Rain = 0
KPD4 252105Z 17009KT 33/18 A2994 RMK A01 T03250183  RH  043%=      5-min Rain = 0
KPD4 252106Z 17010KT 33/18 A2994 RMK A01 T03260175  RH  040%=      5-min Rain = 0
KPD4 252107Z 15010KT 33/18 A2994 RMK A01 T03270181  RH  042%=      5-min Rain = 0
KPD4 252108Z 16012KT 33/18 A2994 RMK A01 T03270179  RH  041%=      5-min Rain = 0
KPD4 252109Z 16011KT 33/17 A2994 RMK A01 T03270171  RH  039%=      5-min Rain = 0
KPD4 252110Z 16011KT 33/17 A2993 RMK A01 T03270171  RH  039%=      5-min Rain = 0
KPD4 252111Z 15009KT 33/18 A2993 RMK A01 T03260179  RH  042%=      5-min Rain = 0
KPD4 252112Z 15011KT 33/17 A2993 RMK A01 T03260174  RH  040%=      5-min Rain = 0
KPD4 252113Z 15012KT 33/18 A2993 RMK A01 T03260175  RH  040%=      5-min Rain = 0
KPD4 252114Z 15011KT 33/17 A2993 RMK A01 T03250172  RH  040%=      5-min Rain = 0
KPD4 252115Z 15009KT 33/18 A2993 RMK A01 T03250179  RH  042%=      5-min Rain = 0
KPD4 252116Z 15009KT 33/18 A2993 RMK A01 T03250182  RH  043%=      5-min Rain = 0
KPD4 252117Z 15011KT 32/18 A2993 RMK A01 T03240176  RH  041%=      5-min Rain = 0
KPD4 252118Z 15010KT 32/17 A2993 RMK A01 T03190173  RH  042%=      5-min Rain = 0
KPD4 252119Z 14010KT 32/17 A2993 RMK A01 T03150171  RH  042%=      5-min Rain = 0
KPD4 252120Z 15008KT 31/17 A2993 RMK A01 T03120173  RH  043%=      5-min Rain = 0
KPD4 252121Z 15008KT 31/18 A2993 RMK A01 T03090177  RH  045%=      5-min Rain = 0
KPD4 252122Z 15008KT 31/17 A2993 RMK A01 T03070172  RH  044%=      5-min Rain = 0
KPD4 252123Z 15010KT 31/17 A2993 RMK A01 T03050172  RH  045%=      5-min Rain = 0
KPD4 252124Z 16010KT 30/17 A2993 RMK A01 T03040169  RH  044%=      5-min Rain = 0
KPD4 252125Z 16008KT 30/17 A2993 RMK A01 T03040171  RH  045%=      5-min Rain = 0
KPD4 252126Z 16007KT 30/17 A2993 RMK A01 T03030173  RH  046%=      5-min Rain = 0
KPD4 252127Z 16008KT 30/18 A2993 RMK A01 T03010175  RH  047%=      5-min Rain = 0
KPD4 252128Z 16008KT 30/18 A2993 RMK A01 T03000175  RH  047%=      5-min Rain = 0
KPD4 252129Z 17009KT 30/17 A2993 RMK A01 T03000172  RH  046%=      5-min Rain = 0
KPD4 252130Z 17008KT 30/17 A2993 RMK A01 T03000169  RH  045%=      5-min Rain = 0
KPD4 252131Z 17008KT 30/17 A2993 RMK A01 T03000174  RH  047%=      5-min Rain = 0
KPD4 252132Z 17008KT 30/17 A2993 RMK A01 T02990174  RH  047%=      5-min Rain = 0
KPD4 252133Z 17008KT 30/17 A2993 RMK A01 T02980171  RH  046%=      5-min Rain = 0
KPD4 252134Z 16008KT 30/17 A2993 RMK A01 T02980169  RH  046%=      5-min Rain = 0
KPD4 252135Z 16007KT 30/17 A2993 RMK A01 T02990169  RH  046%=      5-min Rain = 0
KPD4 252136Z 16008KT 30/17 A2993 RMK A01 T02990170  RH  046%=      5-min Rain = 0
KPD4 252137Z 16007KT 30/17 A2992 RMK A01 T02980171  RH  046%=      5-min Rain = 0
KPD4 252138Z 15008KT 30/17 A2992 RMK A01 T02970171  RH  046%=      5-min Rain = 0
KPD4 252139Z 15006KT 30/18 A2992 RMK A01 T02970177  RH  048%=      5-min Rain = 0
KPD4 252140Z 15007KT 30/18 A2992 RMK A01 T02960176  RH  049%=      5-min Rain = 0
KPD4 252141Z 15006KT 30/18 A2992 RMK A01 T02950177  RH  049%=      5-min Rain = 0
KPD4 252142Z 15006KT 29/18 A2992 RMK A01 T02940181  RH  050%=      5-min Rain = 0
KPD4 252143Z 15006KT 29/18 A2992 RMK A01 T02930181  RH  051%=      5-min Rain = 0
KPD4 252144Z 15006KT 29/18 A2992 RMK A01 T02930181  RH  051%=      5-min Rain = 0
KPD4 252145Z 15007KT 29/18 A2992 RMK A01 T02920181  RH  051%=      5-min Rain = 0
KPD4 252146Z 15007KT 29/18 A2992 RMK A01 T02920180  RH  051%=      5-min Rain = 0
KPD4 252147Z 16006KT 29/18 A2992 RMK A01 T02920178  RH  050%=      5-min Rain = 0
KPD4 252148Z 16006KT 29/18 A2992 RMK A01 T02920179  RH  051%=      5-min Rain = 0
KPD4 252149Z 15006KT 29/18 A2992 RMK A01 T02910178  RH  050%=      5-min Rain = 0
KPD4 252150Z 15006KT 29/18 A2992 RMK A01 T02910179  RH  051%=      5-min Rain = 0
KPD4 252151Z 15006KT 29/18 A2992 RMK A01 T02910180  RH  051%=      5-min Rain = 0
KPD4 252152Z 15006KT 29/18 A2992 RMK A01 T02910183  RH  052%=      5-min Rain = 0
KPD4 252153Z 15006KT 29/18 A2992 RMK A01 T02910179  RH  051%=      5-min Rain = 0
KPD4 252154Z 15006KT 29/18 A2992 RMK A01 T02910180  RH  051%=      5-min Rain = 0
KPD4 252155Z 15006KT 29/18 A2992 RMK A01 T02910179  RH  051%=      5-min Rain = 0
KPD4 252156Z 14006KT 29/18 A2992 RMK A01 T02900180  RH  051%=      5-min Rain = 0
KPD4 252157Z 14007KT 29/18 A2992 RMK A01 T02900183  RH  052%=      5-min Rain = 0
KPD4 252158Z 14007KT 29/18 A2992 RMK A01 T02890181  RH  052%=      5-min Rain = 0
KPD4 252159Z 14006KT 29/18 A2992 RMK A01 T02890182  RH  052%=      5-min Rain = 0
KPD4 252200Z 14007KT 29/18 A2992 RMK A01 T02890180  RH  052%=      5-min Rain = 0
KPD4 252201Z 14007KT 29/18 A2992 RMK A01 T02880180  RH  052%=      5-min Rain = 0
KPD4 252202Z 14007KT 29/18 A2992 RMK A01 T02880181  RH  052%=      5-min Rain = 0
KPD4 252203Z 14006KT 29/18 A2992 RMK A01 T02880182  RH  053%=      5-min Rain = 0
KPD4 252204Z 14006KT 29/18 A2992 RMK A01 T02880181  RH  052%=      5-min Rain = 0
KPD4 252205Z 14007KT 29/18 A2992 RMK A01 T02880180  RH  052%=      5-min Rain = 0
KPD4 252206Z 14006KT 29/18 A2992 RMK A01 T02880181  RH  052%=      5-min Rain = 0
KPD4 252207Z 14006KT 29/18 A2992 RMK A01 T02870183  RH  053%=      5-min Rain = 0
KPD4 252208Z 15005KT 29/18 A2992 RMK A01 T02870183  RH  053%=      5-min Rain = 0
KPD4 252209Z 15005KT 29/18 A2992 RMK A01 T02870184  RH  054%=      5-min Rain = 0
KPD4 252210Z 15005KT 29/18 A2992 RMK A01 T02870184  RH  054%=      5-min Rain = 0
KPD4 252211Z 15005KT 29/18 A2992 RMK A01 T02870182  RH  053%=      5-min Rain = 0
KPD4 252212Z 14005KT 29/18 A2992 RMK A01 T02870182  RH  053%=      5-min Rain = 0
KPD4 252213Z 14004KT 29/18 A2992 RMK A01 T02880181  RH  053%=      5-min Rain = 0
KPD4 252214Z 14004KT 29/18 A2992 RMK A01 T02880183  RH  053%=      5-min Rain = 0
KPD4 252215Z 14004KT 29/18 A2992 RMK A01 T02890184  RH  053%=      5-min Rain = 0
KPD4 252216Z 14005KT 29/19 A2992 RMK A01 T02890185  RH  054%=      5-min Rain = 0
KPD4 252217Z 13005KT 29/18 A2992 RMK A01 T02880182  RH  053%=      5-min Rain = 0
KPD4 252218Z 14005KT 29/19 A2992 RMK A01 T02880185  RH  053%=      5-min Rain = 0
KPD4 252219Z 14005KT 29/18 A2992 RMK A01 T02880184  RH  053%=      5-min Rain = 0
KPD4 252220Z 14005KT 29/19 A2992 RMK A01 T02880187  RH  055%=      5-min Rain = 0
KPD4 252221Z 14006KT 29/18 A2992 RMK A01 T02870183  RH  053%=      5-min Rain = 0
KPD4 252222Z 14008KT 29/17 A2992 RMK A01 T02880174  RH  050%=      5-min Rain = 0
KPD4 252223Z 15008KT 29/18 A2992 RMK A01 T02890176  RH  050%=      5-min Rain = 0
KPD4 252224Z 16008KT 29/18 A2992 RMK A01 T02900177  RH  050%=      5-min Rain = 0
KPD4 252225Z 16011KT 29/18 A2991 RMK A01 T02900177  RH  051%=      5-min Rain = 0
KPD4 252226Z 15013KT 29/17 A2991 RMK A01 T02900174  RH  050%=      5-min Rain = 0
KPD4 252227Z 14012KT 29/18 A2991 RMK A01 T02900175  RH  050%=      5-min Rain = 0
KPD4 252228Z 14011KT 29/18 A2991 RMK A01 T02890179  RH  051%=      5-min Rain = 0
KPD4 252229Z 14012KT 29/17 A2991 RMK A01 T02880174  RH  050%=      5-min Rain = 0
KPD4 252230Z 14011KT 29/18 A2992 RMK A01 T02880177  RH  051%=      5-min Rain = 0
KPD4 252231Z 14011KT 29/18 A2992 RMK A01 T02870178  RH  052%=      5-min Rain = 0
KPD4 252232Z 14011KT 29/18 A2992 RMK A01 T02870177  RH  051%=      5-min Rain = 0
KPD4 252233Z 14011KT 29/18 A2992 RMK A01 T02860176  RH  051%=      5-min Rain = 0
KPD4 252234Z 15011KT 29/18 A2992 RMK A01 T02860176  RH  051%=      5-min Rain = 0
KPD4 252235Z 15013KT 29/17 A2992 RMK A01 T02860174  RH  051%=      5-min Rain = 0
KPD4 252236Z 14011KT 29/17 A2992 RMK A01 T02870173  RH  050%=      5-min Rain = 0
KPD4 252237Z 15010KT 29/17 A2992 RMK A01 T02870173  RH  050%=      5-min Rain = 0
KPD4 252238Z 15012KT 29/17 A2991 RMK A01 T02870173  RH  050%=      5-min Rain = 0
KPD4 252239Z 14012KT 29/18 A2991 RMK A01 T02870175  RH  051%=      5-min Rain = 0
KPD4 252240Z 15011KT 29/17 A2992 RMK A01 T02860173  RH  050%=      5-min Rain = 0
KPD4 252241Z 15012KT 29/17 A2992 RMK A01 T02860172  RH  050%=      5-min Rain = 0
KPD4 252242Z 15011KT 29/17 A2992 RMK A01 T02850172  RH  050%=      5-min Rain = 0
KPD4 252243Z 15011KT 29/17 A2992 RMK A01 T02850174  RH  051%=      5-min Rain = 0
KPD4 252244Z 14011KT 28/17 A2992 RMK A01 T02840174  RH  051%=      5-min Rain = 0
KPD4 252245Z 14012KT 28/17 A2992 RMK A01 T02840172  RH  051%=      5-min Rain = 0
KPD4 252246Z 14011KT 28/17 A2992 RMK A01 T02840170  RH  050%=      5-min Rain = 0
KPD4 252247Z 14010KT 28/17 A2992 RMK A01 T02840173  RH  051%=      5-min Rain = 0
KPD4 252248Z 14011KT 28/17 A2991 RMK A01 T02840171  RH  051%=      5-min Rain = 0
KPD4 252249Z 14011KT 28/17 A2991 RMK A01 T02830171  RH  050%=      5-min Rain = 0
KPD4 252250Z 14009KT 28/17 A2991 RMK A01 T02830171  RH  050%=      5-min Rain = 0
KPD4 252251Z 13009KT 28/17 A2991 RMK A01 T02840173  RH  051%=      5-min Rain = 0
KPD4 252252Z 13010KT 28/17 A2991 RMK A01 T02820173  RH  051%=      5-min Rain = 0
KPD4 252253Z 13010KT 28/17 A2991 RMK A01 T02820173  RH  052%=      5-min Rain = 0
KPD4 252254Z 13010KT 28/17 A2991 RMK A01 T02820171  RH  051%=      5-min Rain = 0
KPD4 252255Z 13010KT 28/17 A2991 RMK A01 T02820173  RH  052%=      5-min Rain = 0
KPD4 252256Z 13011KT 28/17 A299 RMK A01 T02810171  RH  051%=      5-min Rain = 0
KPD4 252257Z 13011KT 28/17 A299 RMK A01 T02810170  RH  051%=      5-min Rain = 0
KPD4 252258Z 13010KT 28/17 A299 RMK A01 T02810172  RH  051%=      5-min Rain = 0
KPD4 252259Z 13010KT 28/17 A2989 RMK A01 T02810172  RH  052%=      5-min Rain = 0
KPD4 252300Z 13011KT 28/17 A2989 RMK A01 T02810174  RH  052%=      5-min Rain = 0
KPD4 252301Z 13012KT 28/17 A2989 RMK A01 T02800173  RH  052%=      5-min Rain = 0
KPD4 252302Z 14013KT 28/17 A299 RMK A01 T02790172  RH  052%=      5-min Rain = 0
KPD4 252303Z 14012KT 28/17 A299 RMK A01 T02800172  RH  052%=      5-min Rain = 0
KPD4 252304Z 15014KT 28/17 A299 RMK A01 T02800171  RH  052%=      5-min Rain = 0
KPD4 252305Z 16016KT 28/17 A2991 RMK A01 T02800169  RH  051%=      5-min Rain = 0
KPD4 252306Z 16015G21KT 28/17 A2991 RMK A01 T02820169  RH  050%=      5-min Rain = 0
KPD4 252307Z 16018G23KT 28/17 A2992 RMK A01 T02830170  RH  050%=      5-min Rain = 0
KPD4 252308Z 16015KT 28/17 A2992 RMK A01 T02840171  RH  050%=      5-min Rain = 0
KPD4 252309Z 16020G25KT 28/17 A2992 RMK A01 T02840171  RH  050%=      5-min Rain = 0
KPD4 252310Z 16022G27KT 28/17 A2992 RMK A01 T02840168  RH  049%=      5-min Rain = 0
KPD4 252311Z 16019KT 29/17 A2992 RMK A01 T02850169  RH  049%=      5-min Rain = 0
KPD4 252312Z 15015KT 29/17 A2991 RMK A01 T02850171  RH  050%=      5-min Rain = 0
KPD4 252313Z 15016KT 29/17 A2991 RMK A01 T02850172  RH  051%=      5-min Rain = 0
KPD4 252314Z 15017KT 28/17 A2991 RMK A01 T02840172  RH  051%=      5-min Rain = 0
KPD4 252315Z 15016KT 28/17 A2992 RMK A01 T02840172  RH  051%=      5-min Rain = 0
KPD4 252316Z 15015G22KT 28/17 A2992 RMK A01 T02840174  RH  051%=      5-min Rain = 0
KPD4 252317Z 15020KT 28/17 A2993 RMK A01 T02830173  RH  051%=      5-min Rain = 0
KPD4 252318Z 17018KT 28/17 A2993 RMK A01 T02830174  RH  052%=      5-min Rain = 0
KPD4 252319Z 18021KT 28/17 A2994 RMK A01 T02810165  RH  049%=      5-min Rain = 0
KPD4 252320Z 17017KT 28/16 A2994 RMK A01 T02770162  RH  050%=      5-min Rain = 0
KPD4 252321Z 17015KT 27/16 A2994 RMK A01 T02740160  RH  050%=      5-min Rain = 0
KPD4 252322Z 17016G21KT 27/16 A2994 RMK A01 T02710159  RH  050%=      5-min Rain = 0
KPD4 252323Z 17016KT 27/16 A2994 RMK A01 T02690155  RH  050%=      5-min Rain = 0
KPD4 252324Z 16014KT 27/16 A2993 RMK A01 T02670155  RH  050%=      5-min Rain = 0
KPD4 252325Z 15013KT 27/16 A2993 RMK A01 T02650156  RH  051%=      5-min Rain = 0
KPD4 252326Z 16012G18KT 26/16 A2993 RMK A01 T02630155  RH  052%=      5-min Rain = 0
KPD4 252327Z 14011G16KT 26/15 A2992 RMK A01 T02610152  RH  051%=      5-min Rain = 0
KPD4 252328Z 16016KT 26/15 A2993 RMK A01 T02610150  RH  050%=      5-min Rain = 0
KPD4 252329Z 16021KT 26/15 A2993 RMK A01 T02590147  RH  050%=      5-min Rain = 0
KPD4 252330Z 16023KT 26/14 A2992 RMK A01 T02580139  RH  048%=      5-min Rain = 0
KPD4 252331Z 17022G27KT 26/14 A2992 RMK A01 T02560138  RH  048%=      5-min Rain = 0
KPD4 252332Z 17023KT 25/14 A2992 RMK A01 T02510139  RH  050%=      5-min Rain = 0
KPD4 252333Z 16020G25KT 25/14 A2992 RMK A01 T02490140  RH  051%=      5-min Rain = 0
KPD4 252334Z 16021G28KT 25/14 A2991 RMK A01 T02450141  RH  052%=      5-min Rain = 0
KPD4 252335Z 16021G27KT 24/14 A2991 RMK A01 T02430140  RH  053%=      5-min Rain = 0
KPD4 252336Z 16019G24KT 24/14 A2991 RMK A01 T02410142  RH  054%=      5-min Rain = 0
KPD4 252337Z 16016KT 24/14 A2991 RMK A01 T02400143  RH  055%=      5-min Rain = 0
KPD4 252338Z 16015G21KT 24/14 A2991 RMK A01 T02400144  RH  055%=      5-min Rain = 0
KPD4 252339Z 18012G17KT 24/14 A2992 RMK A01 T02400144  RH  055%=      5-min Rain = 0
KPD4 252340Z 20011KT 24/14 A2993 RMK A01 T02380144  RH  055%=      5-min Rain = 0
KPD4 252341Z 23012KT 24/14 A2995 RMK A01 T02380140  RH  054%=      5-min Rain = 0
KPD4 252342Z 26017KT 24/15 A2995 RMK A01 T02350149  RH  058%=      5-min Rain = 0
KPD4 252343Z 26014G22KT 23/15 A2996 RMK A01 T02300153  RH  062%=      5-min Rain = 0
KPD4 252344Z 28012KT 23/16 A2996 RMK A01 T02270161  RH  066%=      5-min Rain = 0
KPD4 252345Z 29011KT 22/16 A2997 RMK A01 T02220164  RH  069%=      5-min Rain = 0
KPD4 252346Z 31005KT 22/16 A2997 RMK A01 T02210158  RH  068%=      5-min Rain = 0
KPD4 252347Z 28004KT 22/16 A2998 RMK A01 T02230156  RH  066%=      5-min Rain = 0
KPD4 252348Z 30002KT 23/14 A2997 RMK A01 T02270144  RH  059%=      5-min Rain = 0
KPD4 252349Z 34007KT 23/15 A2996 RMK A01 T02320150  RH  060%=      5-min Rain = 0.01
KPD4 252350Z 34010KT 23/15 A2995 RMK A01 T02330153  RH  061%=      5-min Rain = 0.01
KPD4 252351Z 33005KT 23/15 A2995 RMK A01 T02320151  RH  060%=      5-min Rain = 0
KPD4 252352Z 36008G15KT 23/14 A2994 RMK A01 T02330140  RH  056%=      5-min Rain = 0.02
KPD4 252353Z 13008KT 24/14 A2994 RMK A01 T02360144  RH  056%=      5-min Rain = 0.01
KPD4 252354Z 12009KT 24/15 A2994 RMK A01 T02360147  RH  058%=      5-min Rain = 0.02
KPD4 252355Z 10010KT 23/15 A2994 RMK A01 T02310145  RH  058%=      5-min Rain = 0.01
KPD4 252356Z 11012KT 23/15 A2994 RMK A01 T02290148  RH  060%=      5-min Rain = 0
KPD4 252357Z 11012KT 23/15 A2994 RMK A01 T02260151  RH  062%=      5-min Rain = 0.01
KPD4 252358Z 11013KT 22/15 A2994 RMK A01 T02210154  RH  065%=      5-min Rain = 0
KPD4 252359Z 11015KT 22/16 A2994 RMK A01 T02180155  RH  067%=      5-min Rain = 0
KPD4 260000Z 09014KT 22/16 A2994 RMK A01 T02150158  RH  070%=      5-min Rain = 0
KPD4 260001Z 09013G18KT 21/15 A2994 RMK A01 T02140154  RH  069%=      5-min Rain = 0
KPD4 260002Z 10010KT 21/16 A2994 RMK A01 T02140156  RH  069%=      5-min Rain = 0.01
KPD4 260003Z 11007KT 21/16 A2995 RMK A01 T02140155  RH  069%=      5-min Rain = 0
KPD4 260004Z 12009KT 21/16 A2994 RMK A01 T02130155  RH  069%=      5-min Rain = 0
KPD4 260005Z 13008G13KT 21/15 A2994 RMK A01 T02130152  RH  068%=      5-min Rain = 0
KPD4 260006Z 13010KT 21/15 A2994 RMK A01 T02130150  RH  067%=      5-min Rain = 0
KPD4 260007Z 13009KT 21/15 A2994 RMK A01 T02140150  RH  067%=      5-min Rain = 0
KPD4 260008Z 13010KT 21/15 A2994 RMK A01 T02140149  RH  066%=      5-min Rain = 0
KPD4 260009Z 12012KT 21/15 A2994 RMK A01 T02140149  RH  066%=      5-min Rain = 0
KPD4 260010Z 12011KT 22/15 A2994 RMK A01 T02150146  RH  065%=      5-min Rain = 0
KPD4 260011Z 12010KT 22/15 A2994 RMK A01 T02160147  RH  065%=      5-min Rain = 0
KPD4 260012Z 13009KT 22/15 A2993 RMK A01 T02160148  RH  065%=      5-min Rain = 0
KPD4 260013Z 13011KT 22/15 A2993 RMK A01 T02160148  RH  065%=      5-min Rain = 0
KPD4 260014Z 13010KT 22/15 A2993 RMK A01 T02170150  RH  066%=      5-min Rain = 0
KPD4 260015Z 13010KT 22/15 A2993 RMK A01 T02180151  RH  066%=      5-min Rain = 0
KPD4 260016Z 12008KT 22/15 A2993 RMK A01 T02180152  RH  066%=      5-min Rain = 0
KPD4 260017Z 12007KT 22/15 A2993 RMK A01 T02180153  RH  067%=      5-min Rain = 0
KPD4 260018Z 13007KT 22/16 A2993 RMK A01 T02180156  RH  068%=      5-min Rain = 0
KPD4 260019Z 14008KT 22/16 A2993 RMK A01 T02180157  RH  068%=      5-min Rain = 0
KPD4 260020Z 14009KT 22/16 A2993 RMK A01 T02180157  RH  068%=      5-min Rain = 0
KPD4 260021Z 15010G15KT 22/16 A2993 RMK A01 T02170158  RH  069%=      5-min Rain = 0
KPD4 260022Z 15011KT 22/16 A2992 RMK A01 T02180158  RH  069%=      5-min Rain = 0
KPD4 260023Z 15013G18KT 22/16 A2992 RMK A01 T02180157  RH  068%=      5-min Rain = 0
KPD4 260024Z 15014KT 22/16 A2992 RMK A01 T02210157  RH  067%=      5-min Rain = 0
KPD4 260025Z 15015KT 22/16 A2992 RMK A01 T02220159  RH  067%=      5-min Rain = 0
KPD4 260026Z 15015KT 22/16 A2992 RMK A01 T02230157  RH  066%=      5-min Rain = 0
KPD4 260027Z 16016KT 23/16 A2992 RMK A01 T02260160  RH  067%=      5-min Rain = 0
KPD4 260028Z 17014KT 23/16 A2992 RMK A01 T02270157  RH  065%=      5-min Rain = 0
KPD4 260029Z 17015KT 23/16 A2992 RMK A01 T02290160  RH  065%=      5-min Rain = 0
KPD4 260030Z 17018KT 23/16 A2992 RMK A01 T02300158  RH  064%=      5-min Rain = 0
KPD4 260031Z 16020KT 23/16 A2992 RMK A01 T02330159  RH  063%=      5-min Rain = 0
KPD4 260032Z 16020KT 24/15 A2992 RMK A01 T02360154  RH  060%=      5-min Rain = 0
KPD4 260033Z 16021G26KT 24/15 A2992 RMK A01 T02400146  RH  056%=      5-min Rain = 0
KPD4 260034Z 16019KT 25/15 A2992 RMK A01 T02460150  RH  055%=      5-min Rain = 0
KPD4 260035Z 16019KT 25/16 A2992 RMK A01 T02460155  RH  057%=      5-min Rain = 0
KPD4 260036Z 16015G20KT 25/15 A2992 RMK A01 T02450147  RH  055%=      5-min Rain = 0
KPD4 260037Z 17016G21KT 25/14 A2992 RMK A01 T02470141  RH  052%=      5-min Rain = 0
KPD4 260038Z 16014G20KT 25/14 A2992 RMK A01 T02510142  RH  051%=      5-min Rain = 0
KPD4 260039Z 17013KT 25/15 A2992 RMK A01 T02520146  RH  052%=      5-min Rain = 0
KPD4 260040Z 16016KT 25/14 A2992 RMK A01 T02520140  RH  050%=      5-min Rain = 0
KPD4 260041Z 16016G22KT 25/14 A2992 RMK A01 T02520141  RH  050%=      5-min Rain = 0
KPD4 260042Z 16019G24KT 25/14 A2992 RMK A01 T02520143  RH  051%=      5-min Rain = 0
KPD4 260043Z 16016KT 25/14 A2992 RMK A01 T02520142  RH  051%=      5-min Rain = 0
KPD4 260044Z 16015KT 25/15 A2992 RMK A01 T02500145  RH  052%=      5-min Rain = 0
KPD4 260045Z 15014KT 25/14 A2992 RMK A01 T02490141  RH  051%=      5-min Rain = 0
KPD4 260046Z 15013KT 25/14 A2992 RMK A01 T02500140  RH  050%=      5-min Rain = 0
KPD4 260047Z 16011KT 25/14 A2992 RMK A01 T02510142  RH  051%=      5-min Rain = 0
KPD4 260048Z 15012KT 25/14 A2992 RMK A01 T02510142  RH  051%=      5-min Rain = 0
KPD4 260049Z 16011KT 25/14 A2992 RMK A01 T02500144  RH  052%=      5-min Rain = 0
KPD4 260050Z 16010KT 25/14 A2992 RMK A01 T02490144  RH  052%=      5-min Rain = 0
KPD4 260051Z 17008KT 25/14 A2992 RMK A01 T02480144  RH  052%=      5-min Rain = 0
KPD4 260052Z 17009KT 25/15 A2992 RMK A01 T02460148  RH  054%=      5-min Rain = 0
KPD4 260053Z 17008KT 25/15 A2992 RMK A01 T02450146  RH  054%=      5-min Rain = 0
KPD4 260054Z 17007KT 24/15 A2992 RMK A01 T02430146  RH  054%=      5-min Rain = 0
KPD4 260055Z 16007KT 24/14 A2992 RMK A01 T02430143  RH  054%=      5-min Rain = 0
KPD4 260056Z 16008G13KT 24/14 A2992 RMK A01 T02430142  RH  053%=      5-min Rain = 0
KPD4 260057Z 15009KT 24/13 A2992 RMK A01 T02440134  RH  050%=      5-min Rain = 0
KPD4 260058Z 14009KT 25/14 A2992 RMK A01 T02460137  RH  050%=      5-min Rain = 0
KPD4 260059Z 15010KT 25/13 A2992 RMK A01 T02470132  RH  049%=      5-min Rain = 0
KPD4 260100Z 15011KT 25/12 A2992 RMK A01 T02490122  RH  045%=      5-min Rain = 0
KPD4 260101Z 14012KT 25/12 A2992 RMK A01 T02510119  RH  044%=      5-min Rain = 0
KPD4 260102Z 14010KT 25/12 A2992 RMK A01 T02530120  RH  043%=      5-min Rain = 0
KPD4 260103Z 13009KT 25/12 A2992 RMK A01 T02540119  RH  043%=      5-min Rain = 0
KPD4 260104Z 13010KT 25/12 A2992 RMK A01 T02540119  RH  043%=      5-min Rain = 0
KPD4 260105Z 13011KT 25/12 A2992 RMK A01 T02540119  RH  043%=      5-min Rain = 0
KPD4 260106Z 13011KT 25/11 A2992 RMK A01 T02530114  RH  042%=      5-min Rain = 0
KPD4 260107Z 13013KT 25/11 A2992 RMK A01 T02530113  RH  041%=      5-min Rain = 0
KPD4 260108Z 13014KT 26/11 A2992 RMK A01 T02550105  RH  039%=      5-min Rain = 0
KPD4 260109Z 13014KT 26/11 A2992 RMK A01 T02560107  RH  039%=      5-min Rain = 0
KPD4 260110Z 13013G18KT 26/11 A2992 RMK A01 T02570107  RH  039%=      5-min Rain = 0
KPD4 260111Z 13013KT 26/11 A2992 RMK A01 T02560109  RH  040%=      5-min Rain = 0
KPD4 260112Z 13015KT 26/11 A2992 RMK A01 T02560106  RH  039%=      5-min Rain = 0
KPD4 260113Z 13013KT 26/11 A2993 RMK A01 T02560109  RH  040%=      5-min Rain = 0
KPD4 260114Z 13014KT 26/11 A2993 RMK A01 T02560107  RH  039%=      5-min Rain = 0
KPD4 260115Z 13013KT 26/11 A2993 RMK A01 T02560106  RH  039%=      5-min Rain = 0
KPD4 260116Z 14015KT 26/11 A2993 RMK A01 T02560105  RH  039%=      5-min Rain = 0
KPD4 260117Z 14013KT 26/11 A2993 RMK A01 T02560106  RH  039%=      5-min Rain = 0
KPD4 260118Z 14013KT 26/11 A2993 RMK A01 T02550107  RH  039%=      5-min Rain = 0
KPD4 260119Z 14012KT 25/11 A2993 RMK A01 T02530108  RH  040%=      5-min Rain = 0
KPD4 260120Z 14013KT 25/11 A2993 RMK A01 T02520107  RH  040%=      5-min Rain = 0
KPD4 260121Z 14012KT 25/11 A2993 RMK A01 T02510107  RH  040%=      5-min Rain = 0
KPD4 260122Z 14013KT 25/11 A2993 RMK A01 T02510105  RH  040%=      5-min Rain = 0
KPD4 260123Z 14014KT 25/10 A2992 RMK A01 T02500104  RH  040%=      5-min Rain = 0
KPD4 260124Z 15014KT 25/10 A2992 RMK A01 T02510102  RH  039%=      5-min Rain = 0
KPD4 260125Z 15013KT 25/10 A2993 RMK A01 T02520102  RH  039%=      5-min Rain = 0
KPD4 260126Z 15014KT 25/10 A2992 RMK A01 T02520100  RH  038%=      5-min Rain = 0
KPD4 260127Z 14014KT 25/10 A2992 RMK A01 T02520099  RH  038%=      5-min Rain = 0
KPD4 260128Z 14013KT 25/10 A2992 RMK A01 T02530100  RH  038%=      5-min Rain = 0
KPD4 260129Z 14016KT 25/10 A2992 RMK A01 T02520097  RH  037%=      5-min Rain = 0
KPD4 260130Z 14015KT 25/10 A2993 RMK A01 T02530099  RH  038%=      5-min Rain = 0
KPD4 260131Z 14016KT 25/10 A2993 RMK A01 T02540096  RH  037%=      5-min Rain = 0
KPD4 260132Z 13014KT 26/10 A2993 RMK A01 T02550099  RH  037%=      5-min Rain = 0
KPD4 260133Z 14016KT 25/10 A2993 RMK A01 T02540099  RH  038%=      5-min Rain = 0
KPD4 260134Z 13016KT 25/10 A2993 RMK A01 T02540097  RH  037%=      5-min Rain = 0
KPD4 260135Z 13016KT 26/10 A2993 RMK A01 T02550099  RH  037%=      5-min Rain = 0
KPD4 260136Z 13015KT 26/10 A2993 RMK A01 T02560103  RH  038%=      5-min Rain = 0
KPD4 260137Z 13014KT 25/10 A2993 RMK A01 T02540103  RH  038%=      5-min Rain = 0
KPD4 260138Z 13015KT 25/10 A2993 RMK A01 T02540101  RH  038%=      5-min Rain = 0
KPD4 260139Z 12015KT 26/10 A2993 RMK A01 T02550103  RH  038%=      5-min Rain = 0
KPD4 260140Z 13014KT 26/11 A2993 RMK A01 T02550106  RH  039%=      5-min Rain = 0
KPD4 260141Z 13015KT 25/11 A2993 RMK A01 T02540105  RH  039%=      5-min Rain = 0
KPD4 260142Z 12013KT 25/11 A2993 RMK A01 T02540106  RH  039%=      5-min Rain = 0
KPD4 260143Z 12014KT 25/11 A2993 RMK A01 T02540107  RH  040%=      5-min Rain = 0
KPD4 260144Z 12012G17KT 25/11 A2993 RMK A01 T02540108  RH  040%=      5-min Rain = 0
KPD4 260145Z 12014KT 25/11 A2993 RMK A01 T02540105  RH  039%=      5-min Rain = 0
KPD4 260146Z 13013KT 25/11 A2993 RMK A01 T02540107  RH  040%=      5-min Rain = 0
KPD4 260147Z 13012KT 25/11 A2993 RMK A01 T02540108  RH  040%=      5-min Rain = 0
KPD4 260148Z 13012KT 25/11 A2993 RMK A01 T02540111  RH  041%=      5-min Rain = 0
KPD4 260149Z 13014KT 25/11 A2994 RMK A01 T02530109  RH  040%=      5-min Rain = 0
KPD4 260150Z 14013KT 25/11 A2994 RMK A01 T02520107  RH  040%=      5-min Rain = 0
KPD4 260151Z 14013KT 25/11 A2994 RMK A01 T02520106  RH  040%=      5-min Rain = 0
KPD4 260152Z 13014KT 25/11 A2994 RMK A01 T02520107  RH  040%=      5-min Rain = 0
KPD4 260153Z 13013KT 25/11 A2994 RMK A01 T02520106  RH  040%=      5-min Rain = 0
KPD4 260154Z 13013KT 25/11 A2994 RMK A01 T02510106  RH  040%=      5-min Rain = 0
KPD4 260155Z 12011G16KT 25/11 A2994 RMK A01 T02520109  RH  041%=      5-min Rain = 0
KPD4 260156Z 12013G18KT 25/11 A2994 RMK A01 T02510111  RH  041%=      5-min Rain = 0
KPD4 260157Z 13012KT 25/11 A2994 RMK A01 T02500108  RH  041%=      5-min Rain = 0
KPD4 260158Z 13013G19KT 25/11 A2994 RMK A01 T02500112  RH  042%=      5-min Rain = 0
KPD4 260159Z 13014KT 25/11 A2994 RMK A01 T02500110  RH  041%=      5-min Rain = 0
KPD4 260200Z 13012G17KT 25/11 A2994 RMK A01 T02500113  RH  042%=      5-min Rain = 0
KPD4 260201Z 13013KT 25/11 A2994 RMK A01 T02490112  RH  042%=      5-min Rain = 0
KPD4 260202Z 13015KT 25/11 A2994 RMK A01 T02490110  RH  042%=      5-min Rain = 0
KPD4 260203Z 14013KT 25/11 A2994 RMK A01 T02500110  RH  041%=      5-min Rain = 0
KPD4 260204Z 14013KT 25/11 A2994 RMK A01 T02500113  RH  042%=      5-min Rain = 0
KPD4 260205Z 14012KT 25/12 A2994 RMK A01 T02500115  RH  043%=      5-min Rain = 0
KPD4 260206Z 14013KT 25/12 A2994 RMK A01 T02480115  RH  043%=      5-min Rain = 0
KPD4 260207Z 14013KT 25/12 A2995 RMK A01 T02480115  RH  043%=      5-min Rain = 0
KPD4 260208Z 15013KT 25/12 A2995 RMK A01 T02470116  RH  044%=      5-min Rain = 0
KPD4 260209Z 17011KT 25/12 A2995 RMK A01 T02470118  RH  044%=      5-min Rain = 0
KPD4 260210Z 19010KT 25/12 A2995 RMK A01 T02450119  RH  045%=      5-min Rain = 0
KPD4 260211Z 19010KT 24/12 A2996 RMK A01 T02430120  RH  046%=      5-min Rain = 0
KPD4 260212Z 19012KT 24/12 A2996 RMK A01 T02400120  RH  047%=      5-min Rain = 0
KPD4 260213Z 18013KT 24/12 A2996 RMK A01 T02380119  RH  047%=      5-min Rain = 0
KPD4 260214Z 18014G19KT 24/12 A2996 RMK A01 T02380120  RH  048%=      5-min Rain = 0
KPD4 260215Z 17014KT 24/12 A2996 RMK A01 T02380116  RH  046%=      5-min Rain = 0
KPD4 260216Z 17015G21KT 24/12 A2996 RMK A01 T02400117  RH  046%=      5-min Rain = 0
KPD4 260217Z 17016G22KT 24/12 A2996 RMK A01 T02410115  RH  045%=      5-min Rain = 0
KPD4 260218Z 16017KT 24/12 A2996 RMK A01 T02430116  RH  045%=      5-min Rain = 0
KPD4 260219Z 16016KT 24/12 A2996 RMK A01 T02440116  RH  045%=      5-min Rain = 0
KPD4 260220Z 16018KT 25/12 A2995 RMK A01 T02450117  RH  045%=      5-min Rain = 0
KPD4 260221Z 16017KT 25/12 A2995 RMK A01 T02450118  RH  045%=      5-min Rain = 0
KPD4 260222Z 16017KT 25/12 A2995 RMK A01 T02460117  RH  045%=      5-min Rain = 0
KPD4 260223Z 16018KT 25/12 A2995 RMK A01 T02460117  RH  044%=      5-min Rain = 0
KPD4 260224Z 15017KT 25/12 A2995 RMK A01 T02470118  RH  044%=      5-min Rain = 0
KPD4 260225Z 15017KT 25/12 A2994 RMK A01 T02480118  RH  044%=      5-min Rain = 0
KPD4 260226Z 14018G23KT 25/11 A2994 RMK A01 T02490112  RH  042%=      5-min Rain = 0
KPD4 260227Z 14017KT 25/11 A2994 RMK A01 T02500111  RH  042%=      5-min Rain = 0
KPD4 260228Z 15018KT 25/11 A2994 RMK A01 T02500110  RH  041%=      5-min Rain = 0
KPD4 260229Z 15016KT 25/10 A2994 RMK A01 T02510104  RH  040%=      5-min Rain = 0
KPD4 260230Z 15016KT 25/11 A2994 RMK A01 T02520106  RH  040%=      5-min Rain = 0
KPD4 260231Z 15017KT 25/11 A2994 RMK A01 T02530106  RH  040%=      5-min Rain = 0
KPD4 260232Z 16018KT 25/10 A2994 RMK A01 T02530103  RH  039%=      5-min Rain = 0
KPD4 260233Z 17016KT 25/11 A2994 RMK A01 T02530105  RH  039%=      5-min Rain = 0
KPD4 260234Z 17017KT 25/10 A2994 RMK A01 T02520103  RH  039%=      5-min Rain = 0
KPD4 260235Z 17018KT 25/10 A2994 RMK A01 T02520102  RH  039%=      5-min Rain = 0
KPD4 260236Z 17016G21KT 25/10 A2994 RMK A01 T02510099  RH  038%=      5-min Rain = 0
KPD4 260237Z 17017KT 25/10 A2994 RMK A01 T02510101  RH  039%=      5-min Rain = 0
KPD4 260238Z 16018KT 25/10 A2994 RMK A01 T02500102  RH  039%=      5-min Rain = 0
KPD4 260239Z 17015KT 25/10 A2994 RMK A01 T02500102  RH  039%=      5-min Rain = 0
KPD4 260240Z 16015KT 25/10 A2994 RMK A01 T02490104  RH  040%=      5-min Rain = 0
KPD4 260241Z 17012KT 25/11 A2994 RMK A01 T02460106  RH  041%=      5-min Rain = 0
KPD4 260242Z 19014KT 24/11 A2995 RMK A01 T02430107  RH  042%=      5-min Rain = 0
KPD4 260243Z 20017KT 24/11 A2995 RMK A01 T02410110  RH  043%=      5-min Rain = 0
KPD4 260244Z 21015G20KT 24/11 A2996 RMK A01 T02390112  RH  045%=      5-min Rain = 0
KPD4 260245Z 21020KT 24/11 A2996 RMK A01 T02360111  RH  045%=      5-min Rain = 0
KPD4 260246Z 20017G24KT 24/11 A2995 RMK A01 T02360114  RH  046%=      5-min Rain = 0
KPD4 260247Z 20018G24KT 23/12 A2995 RMK A01 T02330118  RH  049%=      5-min Rain = 0
KPD4 260248Z 20014KT 23/12 A2995 RMK A01 T02300120  RH  050%=      5-min Rain = 0
KPD4 260249Z 19020KT 23/12 A2995 RMK A01 T02290117  RH  049%=      5-min Rain = 0
KPD4 260250Z 19017KT 23/11 A2995 RMK A01 T02310114  RH  048%=      5-min Rain = 0
KPD4 260251Z 18016KT 23/11 A2995 RMK A01 T02340114  RH  047%=      5-min Rain = 0
KPD4 260252Z 18014KT 23/11 A2995 RMK A01 T02340114  RH  047%=      5-min Rain = 0
KPD4 260253Z 18016KT 24/11 A2995 RMK A01 T02350113  RH  046%=      5-min Rain = 0
KPD4 260254Z 18014KT 24/11 A2995 RMK A01 T02360113  RH  046%=      5-min Rain = 0
KPD4 260255Z 18015KT 24/12 A2996 RMK A01 T02360116  RH  047%=      5-min Rain = 0
KPD4 260256Z 18014KT 24/12 A2996 RMK A01 T02350116  RH  047%=      5-min Rain = 0
KPD4 260257Z 18015KT 24/12 A2996 RMK A01 T02350116  RH  047%=      5-min Rain = 0
KPD4 260258Z 18015KT 24/12 A2996 RMK A01 T02350117  RH  047%=      5-min Rain = 0
KPD4 260259Z 18014KT 23/12 A2996 RMK A01 T02340117  RH  048%=      5-min Rain = 0
KPD4 260300Z 18015KT 23/12 A2996 RMK A01 T02320117  RH  048%=      5-min Rain = 0
KPD4 260301Z 18013KT 23/12 A2997 RMK A01 T02320118  RH  049%=      5-min Rain = 0
KPD4 260302Z 18011KT 23/12 A2997 RMK A01 T02300118  RH  049%=      5-min Rain = 0
KPD4 260303Z 17011KT 23/12 A2997 RMK A01 T02290118  RH  049%=      5-min Rain = 0
KPD4 260304Z 16008KT 23/12 A2997 RMK A01 T02290120  RH  050%=      5-min Rain = 0
KPD4 260305Z 16009KT 23/12 A2997 RMK A01 T02270120  RH  051%=      5-min Rain = 0
KPD4 260306Z 17008KT 23/12 A2997 RMK A01 T02250122  RH  052%=      5-min Rain = 0
KPD4 260307Z 18007KT 22/12 A2998 RMK A01 T02230123  RH  053%=      5-min Rain = 0
KPD4 260308Z 19009KT 22/12 A2998 RMK A01 T02220123  RH  053%=      5-min Rain = 0
KPD4 260309Z 18008KT 22/12 A2998 RMK A01 T02210120  RH  053%=      5-min Rain = 0
KPD4 260310Z 17008KT 22/12 A2998 RMK A01 T02200119  RH  053%=      5-min Rain = 0
KPD4 260311Z 17009KT 22/12 A2998 RMK A01 T02200119  RH  053%=      5-min Rain = 0
KPD4 260312Z 17009KT 22/12 A2998 RMK A01 T02210120  RH  053%=      5-min Rain = 0
KPD4 260313Z 15009KT 22/12 A2998 RMK A01 T02210121  RH  053%=      5-min Rain = 0
KPD4 260314Z 16008KT 22/12 A2998 RMK A01 T02200120  RH  053%=      5-min Rain = 0
KPD4 260315Z 16008G13KT 22/12 A2998 RMK A01 T02180122  RH  054%=      5-min Rain = 0
KPD4 260316Z 16011KT 22/12 A2998 RMK A01 T02170120  RH  054%=      5-min Rain = 0
KPD4 260317Z 18011KT 22/12 A2998 RMK A01 T02180118  RH  053%=      5-min Rain = 0
KPD4 260318Z 18011KT 22/12 A2998 RMK A01 T02200119  RH  053%=      5-min Rain = 0
KPD4 260319Z 19012KT 22/12 A2998 RMK A01 T02190118  RH  053%=      5-min Rain = 0
KPD4 260320Z 19013KT 22/12 A2998 RMK A01 T02190118  RH  053%=      5-min Rain = 0
KPD4 260321Z 20014KT 22/12 A2998 RMK A01 T02190117  RH  053%=      5-min Rain = 0
KPD4 260322Z 20014KT 22/12 A2998 RMK A01 T02190115  RH  052%=      5-min Rain = 0
KPD4 260323Z 19016KT 22/12 A2998 RMK A01 T02190115  RH  052%=      5-min Rain = 0
KPD4 260324Z 19014G19KT 22/12 A2998 RMK A01 T02200116  RH  052%=      5-min Rain = 0
KPD4 260325Z 19015KT 22/12 A2998 RMK A01 T02190116  RH  052%=      5-min Rain = 0
KPD4 260326Z 19015KT 22/12 A2998 RMK A01 T02190115  RH  052%=      5-min Rain = 0
KPD4 260327Z 20013KT 22/12 A2998 RMK A01 T02190116  RH  052%=      5-min Rain = 0
KPD4 260328Z 19015KT 22/12 A2998 RMK A01 T02190116  RH  052%=      5-min Rain = 0
KPD4 260329Z 19017KT 22/12 A2998 RMK A01 T02180115  RH  052%=      5-min Rain = 0
KPD4 260330Z 19018KT 22/12 A2998 RMK A01 T02190117  RH  052%=      5-min Rain = 0
KPD4 260331Z 19020G25KT 22/12 A2998 RMK A01 T02180117  RH  053%=      5-min Rain = 0
KPD4 260332Z 20020KT 22/12 A2998 RMK A01 T02180117  RH  053%=      5-min Rain = 0
KPD4 260333Z 19018G23KT 22/12 A2998 RMK A01 T02180118  RH  053%=      5-min Rain = 0
KPD4 260334Z 19019KT 22/12 A2998 RMK A01 T02180118  RH  053%=      5-min Rain = 0
KPD4 260335Z 19019G24KT 22/12 A2998 RMK A01 T02180119  RH  053%=      5-min Rain = 0
KPD4 260336Z 19017KT 22/12 A2998 RMK A01 T02170119  RH  054%=      5-min Rain = 0
KPD4 260337Z 18018G25KT 22/12 A2998 RMK A01 T02160119  RH  054%=      5-min Rain = 0
KPD4 260338Z 19020G26KT 22/12 A2998 RMK A01 T02160117  RH  053%=      5-min Rain = 0
KPD4 260339Z 19022G28KT 22/12 A2998 RMK A01 T02170117  RH  053%=      5-min Rain = 0
KPD4 260340Z 18021G26KT 22/12 A2998 RMK A01 T02180116  RH  052%=      5-min Rain = 0
KPD4 260341Z 19019KT 22/12 A2998 RMK A01 T02170116  RH  053%=      5-min Rain = 0
KPD4 260342Z 18018KT 22/12 A2998 RMK A01 T02170117  RH  053%=      5-min Rain = 0
KPD4 260343Z 18021KT 22/12 A2998 RMK A01 T02160116  RH  053%=      5-min Rain = 0
KPD4 260344Z 18019KT 22/12 A2998 RMK A01 T02170115  RH  052%=      5-min Rain = 0
KPD4 260345Z 18018KT 22/12 A2998 RMK A01 T02170115  RH  052%=      5-min Rain = 0
KPD4 260346Z 18017KT 22/12 A2998 RMK A01 T02170115  RH  052%=      5-min Rain = 0
KPD4 260347Z 18020KT 22/11 A2998 RMK A01 T02170113  RH  052%=      5-min Rain = 0
KPD4 260348Z 18017G24KT 22/11 A2998 RMK A01 T02170113  RH  051%=      5-min Rain = 0
KPD4 260349Z 18019KT 22/11 A2998 RMK A01 T02170112  RH  051%=      5-min Rain = 0
KPD4 260350Z 18020KT 22/11 A2998 RMK A01 T02170112  RH  051%=      5-min Rain = 0
KPD4 260351Z 18019G26KT 22/11 A2998 RMK A01 T02180112  RH  051%=      5-min Rain = 0
KPD4 260352Z 17020G25KT 22/11 A2998 RMK A01 T02180111  RH  051%=      5-min Rain = 0
KPD4 260353Z 17019G24KT 22/11 A2998 RMK A01 T02180111  RH  050%=      5-min Rain = 0
KPD4 260354Z 17021G27KT 22/11 A2998 RMK A01 T02180110  RH  050%=      5-min Rain = 0
KPD4 260355Z 17019KT 22/11 A2998 RMK A01 T02200110  RH  050%=      5-min Rain = 0
KPD4 260356Z 17018KT 22/11 A2998 RMK A01 T02200110  RH  050%=      5-min Rain = 0
KPD4 260357Z 16017KT 22/11 A2998 RMK A01 T02190109  RH  050%=      5-min Rain = 0
KPD4 260358Z 17020KT 22/11 A2998 RMK A01 T02190109  RH  050%=      5-min Rain = 0
KPD4 260359Z 17020KT 22/11 A2998 RMK A01 T02190109  RH  050%=      5-min Rain = 0
KPD4 260400Z 16018KT 22/11 A2998 RMK A01 T02190108  RH  049%=      5-min Rain = 0
KPD4 260401Z 16021G26KT 22/11 A2998 RMK A01 T02190109  RH  050%=      5-min Rain = 0
KPD4 260402Z 16018KT 22/11 A2998 RMK A01 T02200108  RH  049%=      5-min Rain = 0
KPD4 260403Z 17018KT 22/11 A2998 RMK A01 T02200108  RH  049%=      5-min Rain = 0
KPD4 260404Z 17017G23KT 22/11 A2998 RMK A01 T02200109  RH  049%=      5-min Rain = 0
KPD4 260405Z 17017G22KT 22/11 A2998 RMK A01 T02190107  RH  049%=      5-min Rain = 0
KPD4 260406Z 17019G24KT 22/11 A2998 RMK A01 T02200105  RH  048%=      5-min Rain = 0
KPD4 260407Z 17017G22KT 22/11 A2998 RMK A01 T02200106  RH  048%=      5-min Rain = 0
KPD4 260408Z 18018KT 22/11 A2998 RMK A01 T02200105  RH  048%=      5-min Rain = 0
KPD4 260409Z 18019KT 22/10 A2998 RMK A01 T02210104  RH  047%=      5-min Rain = 0
KPD4 260410Z 18019G24KT 22/11 A2998 RMK A01 T02210105  RH  047%=      5-min Rain = 0
KPD4 260411Z 19018KT 22/10 A2998 RMK A01 T02220104  RH  047%=      5-min Rain = 0
KPD4 260412Z 18017G22KT 22/10 A2998 RMK A01 T02220104  RH  047%=      5-min Rain = 0
KPD4 260413Z 18019KT 22/11 A2998 RMK A01 T02220105  RH  048%=      5-min Rain = 0
KPD4 260414Z 19019KT 22/11 A2998 RMK A01 T02210105  RH  048%=      5-min Rain = 0
KPD4 260415Z 19016KT 22/11 A2998 RMK A01 T02200106  RH  048%=      5-min Rain = 0
KPD4 260416Z 20019G24KT 22/11 A2999 RMK A01 T02190106  RH  049%=      5-min Rain = 0
KPD4 260417Z 20019KT 22/11 A2999 RMK A01 T02190105  RH  048%=      5-min Rain = 0
KPD4 260418Z 20017KT 22/11 A2999 RMK A01 T02200106  RH  048%=      5-min Rain = 0
KPD4 260419Z 20017KT 22/11 A2999 RMK A01 T02190106  RH  049%=      5-min Rain = 0
KPD4 260420Z 21016KT 22/11 A2999 RMK A01 T02190107  RH  049%=      5-min Rain = 0
KPD4 260421Z 20017KT 22/11 A2999 RMK A01 T02180107  RH  049%=      5-min Rain = 0
KPD4 260422Z 20016KT 22/11 A2999 RMK A01 T02180107  RH  049%=      5-min Rain = 0
KPD4 260423Z 19017KT 22/11 A2999 RMK A01 T02180106  RH  049%=      5-min Rain = 0
KPD4 260424Z 20017KT 22/11 A2999 RMK A01 T02180105  RH  049%=      5-min Rain = 0
KPD4 260425Z 20016KT 22/11 A2999 RMK A01 T02180105  RH  049%=      5-min Rain = 0
KPD4 260426Z 21015KT 22/11 A2999 RMK A01 T02170106  RH  049%=      5-min Rain = 0
KPD4 260427Z 21016G22KT 22/11 A2999 RMK A01 T02170106  RH  049%=      5-min Rain = 0
KPD4 260428Z 21017KT 22/11 A2999 RMK A01 T02170105  RH  049%=      5-min Rain = 0
KPD4 260429Z 21016KT 22/11 A2999 RMK A01 T02160105  RH  049%=      5-min Rain = 0
KPD4 260430Z 21017KT 22/10 A2999 RMK A01 T02150104  RH  049%=      5-min Rain = 0
KPD4 260431Z 21016KT 22/10 A2998 RMK A01 T02160103  RH  049%=      5-min Rain = 0
KPD4 260432Z 21017KT 22/10 A2998 RMK A01 T02160103  RH  049%=      5-min Rain = 0
KPD4 260433Z 21017KT 22/10 A2998 RMK A01 T02170104  RH  049%=      5-min Rain = 0
KPD4 260434Z 20016KT 22/10 A2998 RMK A01 T02170104  RH  049%=      5-min Rain = 0
KPD4 260435Z 20016KT 22/11 A2998 RMK A01 T02160105  RH  049%=      5-min Rain = 0
KPD4 260436Z 20018KT 22/10 A2998 RMK A01 T02160104  RH  049%=      5-min Rain = 0
KPD4 260437Z 20019KT 22/10 A2998 RMK A01 T02170103  RH  048%=      5-min Rain = 0
KPD4 260438Z 21016KT 22/11 A2998 RMK A01 T02180105  RH  049%=      5-min Rain = 0
KPD4 260439Z 20019KT 22/11 A2998 RMK A01 T02170105  RH  049%=      5-min Rain = 0
KPD4 260440Z 19017KT 22/11 A2998 RMK A01 T02170105  RH  049%=      5-min Rain = 0
KPD4 260441Z 20017KT 22/11 A2998 RMK A01 T02170106  RH  049%=      5-min Rain = 0
KPD4 260442Z 19015KT 22/11 A2998 RMK A01 T02160106  RH  049%=      5-min Rain = 0
KPD4 260443Z 19014KT 22/11 A2998 RMK A01 T02150107  RH  050%=      5-min Rain = 0
KPD4 260444Z 20013KT 21/11 A2998 RMK A01 T02130107  RH  051%=      5-min Rain = 0
KPD4 260445Z 20013KT 21/11 A2998 RMK A01 T02120108  RH  051%=      5-min Rain = 0
KPD4 260446Z 19011KT 21/11 A2998 RMK A01 T02110108  RH  052%=      5-min Rain = 0
KPD4 260447Z 19012KT 21/11 A2998 RMK A01 T02090109  RH  053%=      5-min Rain = 0
KPD4 260448Z 19011KT 21/11 A2998 RMK A01 T02080109  RH  053%=      5-min Rain = 0
KPD4 260449Z 20011KT 21/11 A2998 RMK A01 T02060108  RH  053%=      5-min Rain = 0
KPD4 260450Z 19011KT 21/11 A2998 RMK A01 T02070107  RH  053%=      5-min Rain = 0
KPD4 260451Z 19012KT 21/11 A2998 RMK A01 T02070108  RH  053%=      5-min Rain = 0
KPD4 260452Z 19011KT 21/11 A2998 RMK A01 T02070107  RH  053%=      5-min Rain = 0
KPD4 260453Z 19010KT 21/11 A2998 RMK A01 T02070108  RH  053%=      5-min Rain = 0
KPD4 260454Z 19011KT 21/11 A2998 RMK A01 T02070108  RH  053%=      5-min Rain = 0
KPD4 260455Z 20009KT 21/11 A2998 RMK A01 T02060108  RH  053%=      5-min Rain = 0
KPD4 260456Z 20012KT 21/11 A2998 RMK A01 T02050108  RH  053%=      5-min Rain = 0
KPD4 260457Z 20011KT 21/11 A2998 RMK A01 T02050108  RH  054%=      5-min Rain = 0
KPD4 260458Z 21012KT 21/11 A2998 RMK A01 T02050108  RH  054%=      5-min Rain = 0
KPD4 260459Z 21013KT 20/11 A2998 RMK A01 T02040108  RH  054%=      5-min Rain = 0

Page generated in 0.1364 seconds.